Observation data for Snyder SSW on 09/13/2017      Previous  Date  Next       Current Mesonet Observations  Soil Data  Daily Summary Page  Observations in Plain Language
KWT1 130501Z 07004KT 23/10 A2991 RMK A01 T02250104  RH  046%=      5-min Rain = 0
KWT1 130502Z 07003KT 23/11 A2991 RMK A01 T02250105  RH  047%=      5-min Rain = 0
KWT1 130503Z 07004KT 22/11 A2991 RMK A01 T02240105  RH  047%=      5-min Rain = 0
KWT1 130504Z 08003KT 22/10 A2991 RMK A01 T02230104  RH  047%=      5-min Rain = 0
KWT1 130505Z 08003KT 22/10 A2991 RMK A01 T02230104  RH  047%=      5-min Rain = 0
KWT1 130506Z 08003KT 22/10 A2991 RMK A01 T02220104  RH  047%=      5-min Rain = 0
KWT1 130507Z 09003KT 22/10 A2991 RMK A01 T02220104  RH  047%=      5-min Rain = 0
KWT1 130508Z 08004KT 22/10 A2991 RMK A01 T02220104  RH  047%=      5-min Rain = 0
KWT1 130509Z 08004KT 22/10 A2991 RMK A01 T02220103  RH  047%=      5-min Rain = 0
KWT1 130510Z 07004KT 22/10 A2991 RMK A01 T02220103  RH  047%=      5-min Rain = 0
KWT1 130511Z 07004KT 22/10 A2991 RMK A01 T02220103  RH  047%=      5-min Rain = 0
KWT1 130512Z 07004KT 22/10 A2991 RMK A01 T02220103  RH  047%=      5-min Rain = 0
KWT1 130513Z 07004KT 22/10 A2991 RMK A01 T02220103  RH  047%=      5-min Rain = 0
KWT1 130514Z 07004KT 22/10 A2991 RMK A01 T02220103  RH  047%=      5-min Rain = 0
KWT1 130515Z 07003KT 22/10 A2991 RMK A01 T02220103  RH  047%=      5-min Rain = 0
KWT1 130516Z 07003KT 22/10 A2991 RMK A01 T02220102  RH  047%=      5-min Rain = 0
KWT1 130517Z 07003KT 22/10 A2991 RMK A01 T02220102  RH  047%=      5-min Rain = 0
KWT1 130518Z 07003KT 22/10 A2991 RMK A01 T02210103  RH  047%=      5-min Rain = 0
KWT1 130519Z 07003KT 22/10 A2991 RMK A01 T02200103  RH  047%=      5-min Rain = 0
KWT1 130520Z 07003KT 22/10 A2991 RMK A01 T02200103  RH  047%=      5-min Rain = 0
KWT1 130521Z 08003KT 22/10 A2991 RMK A01 T02190102  RH  047%=      5-min Rain = 0
KWT1 130522Z 08004KT 22/10 A2991 RMK A01 T02190102  RH  047%=      5-min Rain = 0
KWT1 130523Z 07004KT 22/10 A2991 RMK A01 T02190101  RH  047%=      5-min Rain = 0
KWT1 130524Z 07004KT 22/10 A2991 RMK A01 T02200102  RH  047%=      5-min Rain = 0
KWT1 130525Z 07005KT 22/10 A2991 RMK A01 T02190101  RH  047%=      5-min Rain = 0
KWT1 130526Z 07005KT 22/10 A2991 RMK A01 T02190101  RH  047%=      5-min Rain = 0
KWT1 130527Z 07005KT 22/10 A2991 RMK A01 T02190101  RH  047%=      5-min Rain = 0
KWT1 130528Z 07005KT 22/10 A2991 RMK A01 T02190101  RH  047%=      5-min Rain = 0
KWT1 130529Z 07005KT 22/10 A2991 RMK A01 T02200101  RH  047%=      5-min Rain = 0
KWT1 130530Z 07005KT 22/10 A2991 RMK A01 T02190101  RH  047%=      5-min Rain = 0
KWT1 130531Z 07005KT 22/10 A2991 RMK A01 T02200101  RH  047%=      5-min Rain = 0
KWT1 130532Z 07006KT 22/10 A2991 RMK A01 T02200101  RH  047%=      5-min Rain = 0
KWT1 130533Z 08006KT 22/10 A2991 RMK A01 T02200100  RH  046%=      5-min Rain = 0
KWT1 130534Z 07006KT 22/10 A2991 RMK A01 T02220101  RH  046%=      5-min Rain = 0
KWT1 130535Z 08006KT 22/10 A2991 RMK A01 T02220101  RH  046%=      5-min Rain = 0
KWT1 130536Z 07006KT 22/10 A2991 RMK A01 T02230101  RH  046%=      5-min Rain = 0
KWT1 130537Z 08006KT 22/10 A2991 RMK A01 T02240101  RH  046%=      5-min Rain = 0
KWT1 130538Z 07005KT 22/10 A2991 RMK A01 T02240101  RH  045%=      5-min Rain = 0
KWT1 130539Z 07005KT 23/10 A2991 RMK A01 T02250101  RH  045%=      5-min Rain = 0
KWT1 130540Z 07005KT 23/10 A2991 RMK A01 T02250101  RH  045%=      5-min Rain = 0
KWT1 130541Z 08004KT 23/10 A2991 RMK A01 T02250101  RH  045%=      5-min Rain = 0
KWT1 130542Z 07004KT 23/10 A2991 RMK A01 T02250101  RH  045%=      5-min Rain = 0
KWT1 130543Z 07004KT 23/10 A2991 RMK A01 T02250101  RH  045%=      5-min Rain = 0
KWT1 130544Z 08004KT 23/10 A2991 RMK A01 T02250101  RH  045%=      5-min Rain = 0
KWT1 130545Z 07004KT 22/10 A2991 RMK A01 T02240101  RH  045%=      5-min Rain = 0
KWT1 130546Z 07004KT 22/10 A2991 RMK A01 T02240100  RH  045%=      5-min Rain = 0
KWT1 130547Z 08003KT 23/10 A2991 RMK A01 T02250100  RH  045%=      5-min Rain = 0
KWT1 130548Z 09004KT 23/10 A2991 RMK A01 T02250101  RH  045%=      5-min Rain = 0
KWT1 130549Z 08003KT 22/10 A2991 RMK A01 T02240101  RH  045%=      5-min Rain = 0
KWT1 130550Z 09003KT 22/10 A2991 RMK A01 T02240101  RH  045%=      5-min Rain = 0
KWT1 130551Z 09003KT 22/10 A2991 RMK A01 T02240100  RH  045%=      5-min Rain = 0
KWT1 130552Z 09003KT 23/10 A2991 RMK A01 T02250100  RH  045%=      5-min Rain = 0
KWT1 130553Z 09003KT 23/10 A2991 RMK A01 T02250100  RH  045%=      5-min Rain = 0
KWT1 130554Z 10003KT 23/10 A2991 RMK A01 T02250100  RH  045%=      5-min Rain = 0
KWT1 130555Z 10002KT 23/10 A2991 RMK A01 T02250101  RH  045%=      5-min Rain = 0
KWT1 130556Z 10003KT 22/10 A2991 RMK A01 T02240100  RH  045%=      5-min Rain = 0
KWT1 130557Z 10004KT 22/10 A299 RMK A01 T02230099  RH  045%=      5-min Rain = 0
KWT1 130558Z 10003KT 22/10 A299 RMK A01 T02220100  RH  046%=      5-min Rain = 0
KWT1 130559Z 10003KT 22/10 A299 RMK A01 T02220100  RH  046%=      5-min Rain = 0
KWT1 130600Z 10003KT 22/10 A299 RMK A01 T02210100  RH  046%=      5-min Rain = 0
KWT1 130601Z 10003KT 22/10 A2991 RMK A01 T02210100  RH  046%=      5-min Rain = 0
KWT1 130602Z 10003KT 22/10 A2991 RMK A01 T02200099  RH  046%=      5-min Rain = 0
KWT1 130603Z 10003KT 22/10 A2991 RMK A01 T02200099  RH  046%=      5-min Rain = 0
KWT1 130604Z 11003KT 22/10 A2991 RMK A01 T02200099  RH  046%=      5-min Rain = 0
KWT1 130605Z 12003KT 22/10 A2991 RMK A01 T02200099  RH  046%=      5-min Rain = 0
KWT1 130606Z 12003KT 22/10 A2991 RMK A01 T02200099  RH  046%=      5-min Rain = 0
KWT1 130607Z 11003KT 22/10 A2991 RMK A01 T02200099  RH  046%=      5-min Rain = 0
KWT1 130608Z 11003KT 22/10 A2991 RMK A01 T02200099  RH  046%=      5-min Rain = 0
KWT1 130609Z 10003KT 22/10 A299 RMK A01 T02200099  RH  046%=      5-min Rain = 0
KWT1 130610Z 10003KT 22/10 A299 RMK A01 T02200098  RH  046%=      5-min Rain = 0
KWT1 130611Z 10003KT 22/10 A299 RMK A01 T02200098  RH  046%=      5-min Rain = 0
KWT1 130612Z 09004KT 22/10 A299 RMK A01 T02210098  RH  045%=      5-min Rain = 0
KWT1 130613Z 09003KT 22/10 A299 RMK A01 T02220099  RH  045%=      5-min Rain = 0
KWT1 130614Z 09003KT 22/10 A299 RMK A01 T02220098  RH  045%=      5-min Rain = 0
KWT1 130615Z 08003KT 22/10 A299 RMK A01 T02230098  RH  045%=      5-min Rain = 0
KWT1 130616Z 08003KT 22/10 A299 RMK A01 T02230099  RH  045%=      5-min Rain = 0
KWT1 130617Z 09003KT 22/10 A299 RMK A01 T02220099  RH  045%=      5-min Rain = 0
KWT1 130618Z 09003KT 22/10 A299 RMK A01 T02210099  RH  046%=      5-min Rain = 0
KWT1 130619Z 09003KT 22/10 A299 RMK A01 T02210099  RH  046%=      5-min Rain = 0
KWT1 130620Z 10003KT 22/10 A299 RMK A01 T02200099  RH  046%=      5-min Rain = 0
KWT1 130621Z 11003KT 22/10 A299 RMK A01 T02200100  RH  046%=      5-min Rain = 0
KWT1 130622Z 11003KT 22/10 A299 RMK A01 T02190101  RH  047%=      5-min Rain = 0
KWT1 130623Z 10003KT 22/10 A299 RMK A01 T02170100  RH  047%=      5-min Rain = 0
KWT1 130624Z 11003KT 22/10 A299 RMK A01 T02160100  RH  048%=      5-min Rain = 0
KWT1 130625Z 11003KT 21/10 A299 RMK A01 T02140099  RH  048%=      5-min Rain = 0
KWT1 130626Z 11003KT 21/10 A299 RMK A01 T02130099  RH  048%=      5-min Rain = 0
KWT1 130627Z 11003KT 21/10 A299 RMK A01 T02130099  RH  048%=      5-min Rain = 0
KWT1 130628Z 11003KT 21/10 A299 RMK A01 T02130099  RH  048%=      5-min Rain = 0
KWT1 130629Z 11003KT 21/10 A299 RMK A01 T02120098  RH  048%=      5-min Rain = 0
KWT1 130630Z 11003KT 21/10 A299 RMK A01 T02120098  RH  048%=      5-min Rain = 0
KWT1 130631Z 11004KT 21/10 A299 RMK A01 T02130098  RH  048%=      5-min Rain = 0
KWT1 130632Z 11004KT 21/10 A299 RMK A01 T02140098  RH  047%=      5-min Rain = 0
KWT1 130633Z 11004KT 22/10 A299 RMK A01 T02160098  RH  047%=      5-min Rain = 0
KWT1 130634Z 11004KT 22/10 A299 RMK A01 T02170099  RH  047%=      5-min Rain = 0
KWT1 130635Z 11004KT 22/10 A299 RMK A01 T02170098  RH  047%=      5-min Rain = 0
KWT1 130636Z 11003KT 22/10 A299 RMK A01 T02170099  RH  047%=      5-min Rain = 0
KWT1 130637Z 12003KT 22/10 A299 RMK A01 T02170100  RH  047%=      5-min Rain = 0
KWT1 130638Z 12003KT 22/10 A299 RMK A01 T02160099  RH  047%=      5-min Rain = 0
KWT1 130639Z 13003KT 22/10 A299 RMK A01 T02150099  RH  047%=      5-min Rain = 0
KWT1 130640Z 12003KT 21/10 A299 RMK A01 T02140098  RH  048%=      5-min Rain = 0
KWT1 130641Z 11003KT 21/10 A299 RMK A01 T02130098  RH  048%=      5-min Rain = 0
KWT1 130642Z 11003KT 21/10 A299 RMK A01 T02130099  RH  048%=      5-min Rain = 0
KWT1 130643Z 11002KT 21/10 A299 RMK A01 T02120099  RH  048%=      5-min Rain = 0
KWT1 130644Z 11002KT 21/10 A299 RMK A01 T02120098  RH  048%=      5-min Rain = 0
KWT1 130645Z 11002KT 21/10 A299 RMK A01 T02120098  RH  048%=      5-min Rain = 0
KWT1 130646Z 12002KT 21/10 A299 RMK A01 T02120099  RH  048%=      5-min Rain = 0
KWT1 130647Z 13002KT 21/10 A299 RMK A01 T02120099  RH  048%=      5-min Rain = 0
KWT1 130648Z 12002KT 21/10 A299 RMK A01 T02130099  RH  048%=      5-min Rain = 0
KWT1 130649Z 12002KT 21/10 A299 RMK A01 T02120099  RH  048%=      5-min Rain = 0
KWT1 130650Z 11002KT 21/10 A299 RMK A01 T02130099  RH  048%=      5-min Rain = 0
KWT1 130651Z 11002KT 21/10 A299 RMK A01 T02120098  RH  048%=      5-min Rain = 0
KWT1 130652Z 09002KT 21/10 A299 RMK A01 T02120098  RH  048%=      5-min Rain = 0
KWT1 130653Z 08002KT 21/10 A299 RMK A01 T02120099  RH  048%=      5-min Rain = 0
KWT1 130654Z 06002KT 21/10 A299 RMK A01 T02110099  RH  048%=      5-min Rain = 0
KWT1 130655Z 06002KT 21/10 A2991 RMK A01 T02110100  RH  049%=      5-min Rain = 0
KWT1 130656Z 06003KT 21/10 A2991 RMK A01 T02100100  RH  049%=      5-min Rain = 0
KWT1 130657Z 06003KT 21/10 A2991 RMK A01 T02090099  RH  049%=      5-min Rain = 0
KWT1 130658Z 07003KT 21/10 A299 RMK A01 T02080098  RH  049%=      5-min Rain = 0
KWT1 130659Z 07003KT 21/10 A299 RMK A01 T02080098  RH  049%=      5-min Rain = 0
KWT1 130700Z 06003KT 21/10 A299 RMK A01 T02080098  RH  049%=      5-min Rain = 0
KWT1 130701Z 05003KT 21/10 A299 RMK A01 T02080098  RH  049%=      5-min Rain = 0
KWT1 130702Z 05003KT 21/10 A299 RMK A01 T02080098  RH  049%=      5-min Rain = 0
KWT1 130703Z 05003KT 21/10 A299 RMK A01 T02080098  RH  049%=      5-min Rain = 0
KWT1 130704Z 06002KT 21/10 A299 RMK A01 T02080098  RH  049%=      5-min Rain = 0
KWT1 130705Z 05002KT 21/10 A299 RMK A01 T02080098  RH  049%=      5-min Rain = 0
KWT1 130706Z 05002KT 21/10 A299 RMK A01 T02080098  RH  049%=      5-min Rain = 0
KWT1 130707Z 04002KT 21/10 A299 RMK A01 T02070098  RH  050%=      5-min Rain = 0
KWT1 130708Z 03002KT 21/10 A2991 RMK A01 T02060098  RH  050%=      5-min Rain = 0
KWT1 130709Z 03002KT 21/10 A2991 RMK A01 T02060099  RH  050%=      5-min Rain = 0
KWT1 130710Z 04002KT 21/10 A2991 RMK A01 T02050098  RH  050%=      5-min Rain = 0
KWT1 130711Z 04002KT 20/10 A2991 RMK A01 T02040099  RH  051%=      5-min Rain = 0
KWT1 130712Z 04002KT 20/10 A2991 RMK A01 T02040099  RH  051%=      5-min Rain = 0
KWT1 130713Z 04002KT 20/10 A2991 RMK A01 T02030099  RH  051%=      5-min Rain = 0
KWT1 130714Z 04002KT 20/10 A299 RMK A01 T02040100  RH  051%=      5-min Rain = 0
KWT1 130715Z 04002KT 20/10 A299 RMK A01 T02040099  RH  051%=      5-min Rain = 0
KWT1 130716Z 05002KT 20/10 A299 RMK A01 T02040099  RH  051%=      5-min Rain = 0
KWT1 130717Z 05002KT 20/10 A299 RMK A01 T02040099  RH  051%=      5-min Rain = 0
KWT1 130718Z 05002KT 20/10 A299 RMK A01 T02040100  RH  051%=      5-min Rain = 0
KWT1 130719Z 05003KT 20/10 A299 RMK A01 T02040100  RH  051%=      5-min Rain = 0
KWT1 130720Z 05003KT 20/10 A299 RMK A01 T02040100  RH  051%=      5-min Rain = 0
KWT1 130721Z 06003KT 20/10 A299 RMK A01 T02030100  RH  051%=      5-min Rain = 0
KWT1 130722Z 07003KT 20/10 A299 RMK A01 T02030100  RH  051%=      5-min Rain = 0
KWT1 130723Z 08003KT 20/10 A299 RMK A01 T02030100  RH  051%=      5-min Rain = 0
KWT1 130724Z 08003KT 20/10 A299 RMK A01 T02030100  RH  051%=      5-min Rain = 0
KWT1 130725Z 08002KT 20/10 A2991 RMK A01 T02030100  RH  052%=      5-min Rain = 0
KWT1 130726Z 09002KT 20/10 A2991 RMK A01 T02020101  RH  052%=      5-min Rain = 0
KWT1 130727Z 08002KT 20/10 A2991 RMK A01 T02020100  RH  052%=      5-min Rain = 0
KWT1 130728Z 08002KT 20/10 A2991 RMK A01 T02010100  RH  052%=      5-min Rain = 0
KWT1 130729Z 08002KT 20/10 A2991 RMK A01 T02010100  RH  052%=      5-min Rain = 0
KWT1 130730Z 08002KT 20/10 A2991 RMK A01 T02010100  RH  052%=      5-min Rain = 0
KWT1 130731Z 08002KT 20/10 A299 RMK A01 T02000100  RH  052%=      5-min Rain = 0
KWT1 130732Z 08002KT 20/10 A299 RMK A01 T02000101  RH  053%=      5-min Rain = 0
KWT1 130733Z 08002KT 20/10 A299 RMK A01 T02000100  RH  053%=      5-min Rain = 0
KWT1 130734Z 08002KT 20/10 A299 RMK A01 T01990100  RH  053%=      5-min Rain = 0
KWT1 130735Z 08002KT 20/10 A299 RMK A01 T01990100  RH  053%=      5-min Rain = 0
KWT1 130736Z 08002KT 20/10 A299 RMK A01 T01990100  RH  053%=      5-min Rain = 0
KWT1 130737Z 08003KT 20/10 A299 RMK A01 T01990100  RH  053%=      5-min Rain = 0
KWT1 130738Z 08003KT 20/10 A299 RMK A01 T01990100  RH  053%=      5-min Rain = 0
KWT1 130739Z 08003KT 20/10 A299 RMK A01 T01990100  RH  053%=      5-min Rain = 0
KWT1 130740Z 08003KT 20/10 A299 RMK A01 T01990100  RH  053%=      5-min Rain = 0
KWT1 130741Z 08004KT 20/10 A299 RMK A01 T01990100  RH  053%=      5-min Rain = 0
KWT1 130742Z 08004KT 20/10 A299 RMK A01 T01990101  RH  053%=      5-min Rain = 0
KWT1 130743Z 08003KT 20/10 A299 RMK A01 T02000102  RH  053%=      5-min Rain = 0
KWT1 130744Z 08003KT 20/10 A299 RMK A01 T02000102  RH  053%=      5-min Rain = 0
KWT1 130745Z 08003KT 20/10 A299 RMK A01 T02000102  RH  053%=      5-min Rain = 0
KWT1 130746Z 09003KT 20/10 A299 RMK A01 T02000102  RH  053%=      5-min Rain = 0
KWT1 130747Z 09003KT 20/10 A299 RMK A01 T02000102  RH  053%=      5-min Rain = 0
KWT1 130748Z 09003KT 20/10 A299 RMK A01 T02000101  RH  053%=      5-min Rain = 0
KWT1 130749Z 08003KT 20/10 A299 RMK A01 T02000101  RH  053%=      5-min Rain = 0
KWT1 130750Z 09003KT 20/10 A299 RMK A01 T02010101  RH  052%=      5-min Rain = 0
KWT1 130751Z 08003KT 20/10 A299 RMK A01 T02010101  RH  052%=      5-min Rain = 0
KWT1 130752Z 08003KT 20/10 A299 RMK A01 T02020101  RH  052%=      5-min Rain = 0
KWT1 130753Z 08003KT 20/10 A299 RMK A01 T02020100  RH  052%=      5-min Rain = 0
KWT1 130754Z 08003KT 20/10 A299 RMK A01 T02020100  RH  052%=      5-min Rain = 0
KWT1 130755Z 07003KT 20/10 A299 RMK A01 T02030100  RH  052%=      5-min Rain = 0
KWT1 130756Z 07003KT 20/10 A299 RMK A01 T02020099  RH  052%=      5-min Rain = 0
KWT1 130757Z 07003KT 20/10 A299 RMK A01 T02030100  RH  052%=      5-min Rain = 0
KWT1 130758Z 07003KT 20/10 A299 RMK A01 T02030100  RH  052%=      5-min Rain = 0
KWT1 130759Z 08002KT 20/10 A299 RMK A01 T02020100  RH  052%=      5-min Rain = 0
KWT1 130800Z 08002KT 20/10 A299 RMK A01 T02020100  RH  052%=      5-min Rain = 0
KWT1 130801Z 09001KT 20/10 A299 RMK A01 T02010100  RH  052%=      5-min Rain = 0
KWT1 130802Z 10001KT 20/10 A299 RMK A01 T02010101  RH  053%=      5-min Rain = 0
KWT1 130803Z 10002KT 20/10 A299 RMK A01 T02000101  RH  053%=      5-min Rain = 0
KWT1 130804Z 09002KT 20/10 A299 RMK A01 T02000101  RH  053%=      5-min Rain = 0
KWT1 130805Z 10002KT 20/10 A299 RMK A01 T01990100  RH  053%=      5-min Rain = 0
KWT1 130806Z 10002KT 20/10 A299 RMK A01 T01990100  RH  053%=      5-min Rain = 0
KWT1 130807Z 09002KT 20/10 A299 RMK A01 T01990100  RH  053%=      5-min Rain = 0
KWT1 130808Z 10002KT 20/10 A299 RMK A01 T01990100  RH  053%=      5-min Rain = 0
KWT1 130809Z 12002KT 20/10 A299 RMK A01 T01990100  RH  053%=      5-min Rain = 0
KWT1 130810Z 12002KT 20/10 A299 RMK A01 T01990100  RH  053%=      5-min Rain = 0
KWT1 130811Z 13002KT 20/10 A299 RMK A01 T01990100  RH  053%=      5-min Rain = 0
KWT1 130812Z 14002KT 20/10 A299 RMK A01 T01990100  RH  053%=      5-min Rain = 0
KWT1 130813Z 14002KT 20/10 A299 RMK A01 T02000100  RH  052%=      5-min Rain = 0
KWT1 130814Z 14002KT 20/10 A299 RMK A01 T02000100  RH  052%=      5-min Rain = 0
KWT1 130815Z 14002KT 20/10 A299 RMK A01 T02000099  RH  052%=      5-min Rain = 0
KWT1 130816Z 15001KT 20/10 A299 RMK A01 T02000100  RH  052%=      5-min Rain = 0
KWT1 130817Z 14001KT 20/10 A299 RMK A01 T01990099  RH  052%=      5-min Rain = 0
KWT1 130818Z 13001KT 20/10 A299 RMK A01 T02000099  RH  052%=      5-min Rain = 0
KWT1 130819Z 13001KT 20/10 A299 RMK A01 T01990099  RH  052%=      5-min Rain = 0
KWT1 130820Z 12002KT 20/10 A299 RMK A01 T01990099  RH  052%=      5-min Rain = 0
KWT1 130821Z 12002KT 20/10 A299 RMK A01 T01990098  RH  052%=      5-min Rain = 0
KWT1 130822Z 13002KT 20/10 A299 RMK A01 T01990098  RH  052%=      5-min Rain = 0
KWT1 130823Z 13002KT 20/10 A299 RMK A01 T01990098  RH  052%=      5-min Rain = 0
KWT1 130824Z 13002KT 20/10 A299 RMK A01 T01990098  RH  052%=      5-min Rain = 0
KWT1 130825Z 13001KT 20/10 A299 RMK A01 T01990099  RH  052%=      5-min Rain = 0
KWT1 130826Z 13001KT 20/10 A299 RMK A01 T01990099  RH  052%=      5-min Rain = 0
KWT1 130827Z 12001KT 20/10 A299 RMK A01 T01990100  RH  053%=      5-min Rain = 0
KWT1 130828Z 11001KT 20/10 A299 RMK A01 T01990101  RH  053%=      5-min Rain = 0
KWT1 130829Z 10001KT 20/10 A299 RMK A01 T01980100  RH  053%=      5-min Rain = 0
KWT1 130830Z 10001KT 20/10 A299 RMK A01 T01970099  RH  053%=      5-min Rain = 0
KWT1 130831Z 11001KT 20/10 A299 RMK A01 T01970099  RH  053%=      5-min Rain = 0
KWT1 130832Z 12000KT 20/10 A299 RMK A01 T01970099  RH  053%=      5-min Rain = 0
KWT1 130833Z 00000KT 20/10 A299 RMK A01 T01970100  RH  053%=      5-min Rain = 0
KWT1 130834Z 00000KT 20/10 A299 RMK A01 T01970101  RH  054%=      5-min Rain = 0
KWT1 130835Z 00000KT 20/10 A299 RMK A01 T01970100  RH  053%=      5-min Rain = 0
KWT1 130836Z 00000KT 20/10 A299 RMK A01 T01970099  RH  053%=      5-min Rain = 0
KWT1 130837Z 00000KT 20/10 A299 RMK A01 T01980099  RH  053%=      5-min Rain = 0
KWT1 130838Z 00000KT 20/10 A299 RMK A01 T01990099  RH  053%=      5-min Rain = 0
KWT1 130839Z 00000KT 20/10 A299 RMK A01 T01990100  RH  053%=      5-min Rain = 0
KWT1 130840Z 00000KT 20/10 A299 RMK A01 T01980100  RH  053%=      5-min Rain = 0
KWT1 130841Z 00000KT 20/10 A299 RMK A01 T01970100  RH  053%=      5-min Rain = 0
KWT1 130842Z 00000KT 20/10 A299 RMK A01 T01960100  RH  054%=      5-min Rain = 0
KWT1 130843Z 00000KT 20/10 A299 RMK A01 T01960100  RH  054%=      5-min Rain = 0
KWT1 130844Z 00000KT 20/10 A299 RMK A01 T01950100  RH  054%=      5-min Rain = 0
KWT1 130845Z 00000KT 20/10 A299 RMK A01 T01960100  RH  054%=      5-min Rain = 0
KWT1 130846Z 00000KT 20/10 A299 RMK A01 T01950099  RH  054%=      5-min Rain = 0
KWT1 130847Z 00000KT 20/10 A299 RMK A01 T01960099  RH  053%=      5-min Rain = 0
KWT1 130848Z 00000KT 20/10 A299 RMK A01 T01960099  RH  053%=      5-min Rain = 0
KWT1 130849Z 02001KT 20/10 A299 RMK A01 T01960098  RH  053%=      5-min Rain = 0
KWT1 130850Z 02001KT 20/10 A299 RMK A01 T01960098  RH  053%=      5-min Rain = 0
KWT1 130851Z 03002KT 20/10 A299 RMK A01 T01960099  RH  053%=      5-min Rain = 0
KWT1 130852Z 03002KT 20/10 A299 RMK A01 T01960099  RH  053%=      5-min Rain = 0
KWT1 130853Z 04002KT 20/10 A299 RMK A01 T01960099  RH  054%=      5-min Rain = 0
KWT1 130854Z 04002KT 20/10 A299 RMK A01 T01950100  RH  054%=      5-min Rain = 0
KWT1 130855Z 04002KT 20/10 A2989 RMK A01 T01960100  RH  054%=      5-min Rain = 0
KWT1 130856Z 05002KT 20/10 A2989 RMK A01 T01960100  RH  054%=      5-min Rain = 0
KWT1 130857Z 05002KT 20/10 A2989 RMK A01 T01960100  RH  054%=      5-min Rain = 0
KWT1 130858Z 05001KT 20/10 A2989 RMK A01 T01960099  RH  053%=      5-min Rain = 0
KWT1 130859Z 05001KT 20/10 A2989 RMK A01 T01970099  RH  053%=      5-min Rain = 0
KWT1 130900Z 05001KT 20/10 A2989 RMK A01 T01970100  RH  053%=      5-min Rain = 0
KWT1 130901Z 05001KT 20/10 A2989 RMK A01 T01970100  RH  053%=      5-min Rain = 0
KWT1 130902Z 05001KT 20/10 A2989 RMK A01 T01970100  RH  053%=      5-min Rain = 0
KWT1 130903Z 05001KT 20/10 A2989 RMK A01 T01970100  RH  053%=      5-min Rain = 0
KWT1 130904Z 05001KT 20/10 A2989 RMK A01 T01970100  RH  053%=      5-min Rain = 0
KWT1 130905Z 05001KT 20/10 A2989 RMK A01 T01970100  RH  053%=      5-min Rain = 0
KWT1 130906Z 05001KT 20/10 A2989 RMK A01 T01960099  RH  053%=      5-min Rain = 0
KWT1 130907Z 05001KT 20/10 A2989 RMK A01 T01960099  RH  053%=      5-min Rain = 0
KWT1 130908Z 06002KT 20/10 A2989 RMK A01 T01960099  RH  053%=      5-min Rain = 0
KWT1 130909Z 07002KT 20/10 A2989 RMK A01 T01970100  RH  054%=      5-min Rain = 0
KWT1 130910Z 08002KT 20/10 A2989 RMK A01 T01960100  RH  054%=      5-min Rain = 0
KWT1 130911Z 09002KT 20/10 A2989 RMK A01 T01950099  RH  054%=      5-min Rain = 0
KWT1 130912Z 10002KT 20/10 A2989 RMK A01 T01950100  RH  054%=      5-min Rain = 0
KWT1 130913Z 10002KT 19/10 A2989 RMK A01 T01940100  RH  054%=      5-min Rain = 0
KWT1 130914Z 10002KT 19/10 A2989 RMK A01 T01940099  RH  054%=      5-min Rain = 0
KWT1 130915Z 10002KT 19/10 A2989 RMK A01 T01930100  RH  055%=      5-min Rain = 0
KWT1 130916Z 10002KT 19/10 A2989 RMK A01 T01930100  RH  055%=      5-min Rain = 0
KWT1 130917Z 10002KT 19/10 A2989 RMK A01 T01930100  RH  055%=      5-min Rain = 0
KWT1 130918Z 11002KT 19/10 A2989 RMK A01 T01920100  RH  055%=      5-min Rain = 0
KWT1 130919Z 11002KT 19/10 A2989 RMK A01 T01920101  RH  056%=      5-min Rain = 0
KWT1 130920Z 12002KT 19/10 A2989 RMK A01 T01910100  RH  055%=      5-min Rain = 0
KWT1 130921Z 12002KT 19/10 A2989 RMK A01 T01910100  RH  055%=      5-min Rain = 0
KWT1 130922Z 12002KT 19/10 A2989 RMK A01 T01900100  RH  056%=      5-min Rain = 0
KWT1 130923Z 12002KT 19/10 A2989 RMK A01 T01900100  RH  056%=      5-min Rain = 0
KWT1 130924Z 11002KT 19/10 A2989 RMK A01 T01900100  RH  056%=      5-min Rain = 0
KWT1 130925Z 11002KT 19/10 A2989 RMK A01 T01900099  RH  056%=      5-min Rain = 0
KWT1 130926Z 10002KT 19/10 A2989 RMK A01 T01900099  RH  056%=      5-min Rain = 0
KWT1 130927Z 12001KT 19/10 A2989 RMK A01 T01900100  RH  056%=      5-min Rain = 0
KWT1 130928Z 10001KT 19/10 A2989 RMK A01 T01910100  RH  056%=      5-min Rain = 0
KWT1 130929Z 10000KT 19/10 A2989 RMK A01 T01920100  RH  055%=      5-min Rain = 0
KWT1 130930Z 00000KT 19/10 A2989 RMK A01 T01920101  RH  056%=      5-min Rain = 0
KWT1 130931Z 00000KT 19/10 A2989 RMK A01 T01900101  RH  056%=      5-min Rain = 0
KWT1 130932Z 00000KT 19/10 A2989 RMK A01 T01890101  RH  057%=      5-min Rain = 0
KWT1 130933Z 00000KT 19/10 A2989 RMK A01 T01880101  RH  057%=      5-min Rain = 0
KWT1 130934Z 00000KT 19/10 A2989 RMK A01 T01870100  RH  057%=      5-min Rain = 0
KWT1 130935Z 00000KT 19/10 A2989 RMK A01 T01870100  RH  057%=      5-min Rain = 0
KWT1 130936Z 10000KT 19/10 A2989 RMK A01 T01860099  RH  057%=      5-min Rain = 0
KWT1 130937Z 09001KT 19/10 A2989 RMK A01 T01860099  RH  057%=      5-min Rain = 0
KWT1 130938Z 09001KT 19/10 A2989 RMK A01 T01870099  RH  057%=      5-min Rain = 0
KWT1 130939Z 09001KT 19/10 A2989 RMK A01 T01870099  RH  057%=      5-min Rain = 0
KWT1 130940Z 09001KT 19/10 A2989 RMK A01 T01870099  RH  056%=      5-min Rain = 0
KWT1 130941Z 10002KT 19/10 A2989 RMK A01 T01880099  RH  056%=      5-min Rain = 0
KWT1 130942Z 10002KT 19/10 A2989 RMK A01 T01890099  RH  056%=      5-min Rain = 0
KWT1 130943Z 10002KT 19/10 A2989 RMK A01 T01890099  RH  056%=      5-min Rain = 0
KWT1 130944Z 09002KT 19/10 A2989 RMK A01 T01900098  RH  055%=      5-min Rain = 0
KWT1 130945Z 08002KT 19/10 A2989 RMK A01 T01910098  RH  055%=      5-min Rain = 0
KWT1 130946Z 07001KT 19/10 A2989 RMK A01 T01910098  RH  055%=      5-min Rain = 0
KWT1 130947Z 06001KT 19/10 A2989 RMK A01 T01920098  RH  055%=      5-min Rain = 0
KWT1 130948Z 05001KT 19/10 A2989 RMK A01 T01920098  RH  054%=      5-min Rain = 0
KWT1 130949Z 03001KT 19/10 A2989 RMK A01 T01920099  RH  055%=      5-min Rain = 0
KWT1 130950Z 00001KT 19/10 A2989 RMK A01 T01920099  RH  055%=      5-min Rain = 0
KWT1 130951Z 34001KT 19/10 A2989 RMK A01 T01910103  RH  057%=      5-min Rain = 0
KWT1 130952Z 32001KT 19/10 A2989 RMK A01 T01880102  RH  057%=      5-min Rain = 0
KWT1 130953Z 30001KT 19/10 A2989 RMK A01 T01870102  RH  058%=      5-min Rain = 0
KWT1 130954Z 30001KT 19/10 A2989 RMK A01 T01860102  RH  058%=      5-min Rain = 0
KWT1 130955Z 30001KT 19/10 A2989 RMK A01 T01860102  RH  058%=      5-min Rain = 0
KWT1 130956Z 30000KT 19/10 A2989 RMK A01 T01860102  RH  058%=      5-min Rain = 0
KWT1 130957Z 19000KT 19/10 A2989 RMK A01 T01870100  RH  057%=      5-min Rain = 0
KWT1 130958Z 15000KT 19/10 A2989 RMK A01 T01870102  RH  058%=      5-min Rain = 0
KWT1 130959Z 13001KT 19/10 A2989 RMK A01 T01870101  RH  057%=      5-min Rain = 0
KWT1 131000Z 13003KT 19/10 A2989 RMK A01 T01870101  RH  057%=      5-min Rain = 0
KWT1 131001Z 13002KT 19/10 A2989 RMK A01 T01870100  RH  057%=      5-min Rain = 0
KWT1 131002Z 13003KT 19/10 A2989 RMK A01 T01870102  RH  058%=      5-min Rain = 0
KWT1 131003Z 13003KT 19/10 A2989 RMK A01 T01860100  RH  057%=      5-min Rain = 0
KWT1 131004Z 13003KT 19/10 A2989 RMK A01 T01870100  RH  057%=      5-min Rain = 0
KWT1 131005Z 13003KT 19/10 A2989 RMK A01 T01880098  RH  056%=      5-min Rain = 0
KWT1 131006Z 13003KT 19/10 A2989 RMK A01 T01880099  RH  056%=      5-min Rain = 0
KWT1 131007Z 14004KT 19/10 A2989 RMK A01 T01890101  RH  056%=      5-min Rain = 0
KWT1 131008Z 14003KT 19/10 A2989 RMK A01 T01890100  RH  056%=      5-min Rain = 0
KWT1 131009Z 14003KT 19/10 A2989 RMK A01 T01890099  RH  056%=      5-min Rain = 0
KWT1 131010Z 14003KT 19/10 A2989 RMK A01 T01890099  RH  056%=      5-min Rain = 0
KWT1 131011Z 14004KT 19/10 A2989 RMK A01 T01890098  RH  056%=      5-min Rain = 0
KWT1 131012Z 14004KT 19/10 A2989 RMK A01 T01890098  RH  056%=      5-min Rain = 0
KWT1 131013Z 13004KT 19/10 A2988 RMK A01 T01890099  RH  056%=      5-min Rain = 0
KWT1 131014Z 12004KT 19/10 A2988 RMK A01 T01900099  RH  056%=      5-min Rain = 0
KWT1 131015Z 11004KT 19/10 A2988 RMK A01 T01900100  RH  056%=      5-min Rain = 0
KWT1 131016Z 11004KT 19/10 A2988 RMK A01 T01880102  RH  057%=      5-min Rain = 0
KWT1 131017Z 11004KT 19/10 A2988 RMK A01 T01860103  RH  058%=      5-min Rain = 0
KWT1 131018Z 10004KT 18/10 A2988 RMK A01 T01840103  RH  059%=      5-min Rain = 0
KWT1 131019Z 11004KT 18/10 A2988 RMK A01 T01840104  RH  060%=      5-min Rain = 0
KWT1 131020Z 10003KT 18/11 A2988 RMK A01 T01830105  RH  060%=      5-min Rain = 0
KWT1 131021Z 10003KT 18/11 A2988 RMK A01 T01830105  RH  061%=      5-min Rain = 0
KWT1 131022Z 10004KT 18/11 A2988 RMK A01 T01820105  RH  061%=      5-min Rain = 0
KWT1 131023Z 10003KT 18/10 A2988 RMK A01 T01820104  RH  061%=      5-min Rain = 0
KWT1 131024Z 10003KT 18/11 A2988 RMK A01 T01810105  RH  061%=      5-min Rain = 0
KWT1 131025Z 10003KT 18/11 A2989 RMK A01 T01810105  RH  061%=      5-min Rain = 0
KWT1 131026Z 10003KT 18/11 A2989 RMK A01 T01810105  RH  061%=      5-min Rain = 0
KWT1 131027Z 10002KT 18/11 A2989 RMK A01 T01810106  RH  061%=      5-min Rain = 0
KWT1 131028Z 09002KT 18/11 A2989 RMK A01 T01810105  RH  061%=      5-min Rain = 0
KWT1 131029Z 09002KT 18/11 A2989 RMK A01 T01800105  RH  061%=      5-min Rain = 0
KWT1 131030Z 08001KT 18/11 A2989 RMK A01 T01810105  RH  061%=      5-min Rain = 0
KWT1 131031Z 06001KT 18/11 A2989 RMK A01 T01810105  RH  061%=      5-min Rain = 0
KWT1 131032Z 05001KT 18/11 A2989 RMK A01 T01810105  RH  061%=      5-min Rain = 0
KWT1 131033Z 04001KT 18/10 A2989 RMK A01 T01800104  RH  061%=      5-min Rain = 0
KWT1 131034Z 05002KT 18/10 A2989 RMK A01 T01790104  RH  061%=      5-min Rain = 0
KWT1 131035Z 06002KT 18/10 A2989 RMK A01 T01790104  RH  062%=      5-min Rain = 0
KWT1 131036Z 06002KT 18/11 A2989 RMK A01 T01790105  RH  062%=      5-min Rain = 0
KWT1 131037Z 06003KT 18/11 A2989 RMK A01 T01790106  RH  062%=      5-min Rain = 0
KWT1 131038Z 06003KT 18/11 A2989 RMK A01 T01790107  RH  062%=      5-min Rain = 0
KWT1 131039Z 06002KT 18/11 A2989 RMK A01 T01790107  RH  063%=      5-min Rain = 0
KWT1 131040Z 06002KT 18/11 A2989 RMK A01 T01780108  RH  063%=      5-min Rain = 0
KWT1 131041Z 05002KT 18/11 A2989 RMK A01 T01780110  RH  064%=      5-min Rain = 0
KWT1 131042Z 06001KT 18/11 A2989 RMK A01 T01790112  RH  065%=      5-min Rain = 0
KWT1 131043Z 05001KT 18/11 A2989 RMK A01 T01790111  RH  065%=      5-min Rain = 0
KWT1 131044Z 04001KT 18/11 A2989 RMK A01 T01790110  RH  064%=      5-min Rain = 0
KWT1 131045Z 03001KT 18/11 A2989 RMK A01 T01800113  RH  065%=      5-min Rain = 0
KWT1 131046Z 03000KT 18/11 A2989 RMK A01 T01800113  RH  065%=      5-min Rain = 0
KWT1 131047Z 05001KT 18/11 A2989 RMK A01 T01800111  RH  064%=      5-min Rain = 0
KWT1 131048Z 08002KT 18/11 A2989 RMK A01 T01810110  RH  063%=      5-min Rain = 0
KWT1 131049Z 08002KT 18/11 A2989 RMK A01 T01810109  RH  063%=      5-min Rain = 0
KWT1 131050Z 09003KT 18/11 A2989 RMK A01 T01810108  RH  063%=      5-min Rain = 0
KWT1 131051Z 09003KT 18/11 A2989 RMK A01 T01810109  RH  063%=      5-min Rain = 0
KWT1 131052Z 09004KT 18/11 A2989 RMK A01 T01800108  RH  063%=      5-min Rain = 0
KWT1 131053Z 10004KT 18/11 A2988 RMK A01 T01790109  RH  063%=      5-min Rain = 0
KWT1 131054Z 10004KT 18/11 A2988 RMK A01 T01780109  RH  064%=      5-min Rain = 0
KWT1 131055Z 10003KT 18/11 A2988 RMK A01 T01770109  RH  064%=      5-min Rain = 0
KWT1 131056Z 11003KT 18/11 A2988 RMK A01 T01770109  RH  064%=      5-min Rain = 0
KWT1 131057Z 11003KT 18/11 A2988 RMK A01 T01760108  RH  064%=      5-min Rain = 0
KWT1 131058Z 11002KT 18/11 A2988 RMK A01 T01760108  RH  064%=      5-min Rain = 0
KWT1 131059Z 12002KT 18/11 A2988 RMK A01 T01760108  RH  064%=      5-min Rain = 0
KWT1 131100Z 12002KT 18/11 A2988 RMK A01 T01760108  RH  064%=      5-min Rain = 0
KWT1 131101Z 12001KT 18/11 A2989 RMK A01 T01770108  RH  064%=      5-min Rain = 0
KWT1 131102Z 13001KT 18/11 A2989 RMK A01 T01780108  RH  063%=      5-min Rain = 0
KWT1 131103Z 13001KT 18/11 A2989 RMK A01 T01790108  RH  063%=      5-min Rain = 0
KWT1 131104Z 12001KT 18/11 A2989 RMK A01 T01800108  RH  063%=      5-min Rain = 0
KWT1 131105Z 11001KT 18/11 A2989 RMK A01 T01800108  RH  063%=      5-min Rain = 0
KWT1 131106Z 10001KT 18/11 A2989 RMK A01 T01800108  RH  063%=      5-min Rain = 0
KWT1 131107Z 10002KT 18/11 A2988 RMK A01 T01800107  RH  062%=      5-min Rain = 0
KWT1 131108Z 09003KT 18/11 A2988 RMK A01 T01800107  RH  062%=      5-min Rain = 0
KWT1 131109Z 09003KT 18/11 A2988 RMK A01 T01800107  RH  062%=      5-min Rain = 0
KWT1 131110Z 09003KT 18/11 A2988 RMK A01 T01800107  RH  062%=      5-min Rain = 0
KWT1 131111Z 09002KT 18/11 A2988 RMK A01 T01810108  RH  063%=      5-min Rain = 0
KWT1 131112Z 10002KT 18/11 A2988 RMK A01 T01800108  RH  063%=      5-min Rain = 0
KWT1 131113Z 10001KT 18/11 A2988 RMK A01 T01790107  RH  063%=      5-min Rain = 0
KWT1 131114Z 10001KT 18/11 A2988 RMK A01 T01800108  RH  063%=      5-min Rain = 0
KWT1 131115Z 10001KT 18/11 A2988 RMK A01 T01790109  RH  063%=      5-min Rain = 0
KWT1 131116Z 10002KT 18/11 A2988 RMK A01 T01790109  RH  063%=      5-min Rain = 0
KWT1 131117Z 09002KT 18/11 A2988 RMK A01 T01800109  RH  063%=      5-min Rain = 0
KWT1 131118Z 09003KT 18/11 A2988 RMK A01 T01790108  RH  063%=      5-min Rain = 0
KWT1 131119Z 09003KT 18/10 A2988 RMK A01 T01790104  RH  062%=      5-min Rain = 0
KWT1 131120Z 08003KT 18/10 A2988 RMK A01 T01800103  RH  061%=      5-min Rain = 0
KWT1 131121Z 09004KT 18/10 A2988 RMK A01 T01800104  RH  061%=      5-min Rain = 0
KWT1 131122Z 09004KT 18/11 A2988 RMK A01 T01800105  RH  061%=      5-min Rain = 0
KWT1 131123Z 09004KT 18/11 A2988 RMK A01 T01800107  RH  062%=      5-min Rain = 0
KWT1 131124Z 09004KT 18/11 A2988 RMK A01 T01780106  RH  063%=      5-min Rain = 0
KWT1 131125Z 09004KT 18/11 A2988 RMK A01 T01780107  RH  063%=      5-min Rain = 0
KWT1 131126Z 09003KT 18/11 A2988 RMK A01 T01770107  RH  064%=      5-min Rain = 0
KWT1 131127Z 10003KT 18/11 A2988 RMK A01 T01760107  RH  064%=      5-min Rain = 0
KWT1 131128Z 10003KT 18/11 A2988 RMK A01 T01750106  RH  064%=      5-min Rain = 0
KWT1 131129Z 10003KT 18/10 A2989 RMK A01 T01750104  RH  063%=      5-min Rain = 0
KWT1 131130Z 10003KT 18/10 A2989 RMK A01 T01750104  RH  063%=      5-min Rain = 0
KWT1 131131Z 09003KT 18/10 A2988 RMK A01 T01750104  RH  063%=      5-min Rain = 0
KWT1 131132Z 09004KT 18/10 A2988 RMK A01 T01760104  RH  062%=      5-min Rain = 0
KWT1 131133Z 09004KT 18/10 A2988 RMK A01 T01760103  RH  062%=      5-min Rain = 0
KWT1 131134Z 10005KT 18/10 A2988 RMK A01 T01760104  RH  062%=      5-min Rain = 0
KWT1 131135Z 09005KT 18/10 A2988 RMK A01 T01760104  RH  062%=      5-min Rain = 0
KWT1 131136Z 10004KT 18/10 A2988 RMK A01 T01770104  RH  063%=      5-min Rain = 0
KWT1 131137Z 10004KT 18/10 A2988 RMK A01 T01760104  RH  063%=      5-min Rain = 0
KWT1 131138Z 10003KT 18/10 A2989 RMK A01 T01760104  RH  063%=      5-min Rain = 0
KWT1 131139Z 10003KT 18/10 A2989 RMK A01 T01760104  RH  063%=      5-min Rain = 0
KWT1 131140Z 10002KT 18/10 A2989 RMK A01 T01760103  RH  062%=      5-min Rain = 0
KWT1 131141Z 11001KT 18/10 A2989 RMK A01 T01760103  RH  062%=      5-min Rain = 0
KWT1 131142Z 11002KT 18/10 A2989 RMK A01 T01760103  RH  062%=      5-min Rain = 0
KWT1 131143Z 11001KT 18/10 A2989 RMK A01 T01760102  RH  062%=      5-min Rain = 0
KWT1 131144Z 10003KT 18/10 A2989 RMK A01 T01760101  RH  061%=      5-min Rain = 0
KWT1 131145Z 11002KT 18/10 A2989 RMK A01 T01760100  RH  061%=      5-min Rain = 0
KWT1 131146Z 11002KT 18/10 A2989 RMK A01 T01760100  RH  061%=      5-min Rain = 0
KWT1 131147Z 11002KT 18/10 A2989 RMK A01 T01760099  RH  061%=      5-min Rain = 0
KWT1 131148Z 11002KT 18/10 A2989 RMK A01 T01770100  RH  060%=      5-min Rain = 0
KWT1 131149Z 12001KT 18/10 A2989 RMK A01 T01770100  RH  060%=      5-min Rain = 0
KWT1 131150Z 13001KT 18/10 A2989 RMK A01 T01770100  RH  060%=      5-min Rain = 0
KWT1 131151Z 13001KT 18/10 A2989 RMK A01 T01780100  RH  060%=      5-min Rain = 0
KWT1 131152Z 13001KT 18/10 A2989 RMK A01 T01780100  RH  060%=      5-min Rain = 0
KWT1 131153Z 13001KT 18/10 A2989 RMK A01 T01780100  RH  060%=      5-min Rain = 0
KWT1 131154Z 13001KT 18/10 A2989 RMK A01 T01780099  RH  060%=      5-min Rain = 0
KWT1 131155Z 13001KT 18/10 A2989 RMK A01 T01780100  RH  060%=      5-min Rain = 0
KWT1 131156Z 15001KT 18/10 A2989 RMK A01 T01780099  RH  060%=      5-min Rain = 0
KWT1 131157Z 14002KT 18/10 A2989 RMK A01 T01780099  RH  060%=      5-min Rain = 0
KWT1 131158Z 14002KT 18/10 A2989 RMK A01 T01780099  RH  060%=      5-min Rain = 0
KWT1 131159Z 14002KT 18/10 A2989 RMK A01 T01790099  RH  059%=      5-min Rain = 0
KWT1 131200Z 14002KT 18/10 A2989 RMK A01 T01790099  RH  059%=      5-min Rain = 0
KWT1 131201Z 15002KT 18/10 A2989 RMK A01 T01790099  RH  059%=      5-min Rain = 0
KWT1 131202Z 15002KT 18/10 A2989 RMK A01 T01790098  RH  059%=      5-min Rain = 0
KWT1 131203Z 15002KT 18/10 A2989 RMK A01 T01800098  RH  059%=      5-min Rain = 0
KWT1 131204Z 15002KT 18/10 A2989 RMK A01 T01800098  RH  059%=      5-min Rain = 0
KWT1 131205Z 15003KT 18/10 A2989 RMK A01 T01810098  RH  058%=      5-min Rain = 0
KWT1 131206Z 15003KT 18/10 A2989 RMK A01 T01810097  RH  058%=      5-min Rain = 0
KWT1 131207Z 14003KT 18/10 A2989 RMK A01 T01810097  RH  058%=      5-min Rain = 0
KWT1 131208Z 14003KT 18/10 A2989 RMK A01 T01810098  RH  058%=      5-min Rain = 0
KWT1 131209Z 14003KT 18/10 A2989 RMK A01 T01810097  RH  058%=      5-min Rain = 0
KWT1 131210Z 14004KT 18/10 A2989 RMK A01 T01820098  RH  058%=      5-min Rain = 0
KWT1 131211Z 14004KT 18/10 A2989 RMK A01 T01810097  RH  058%=      5-min Rain = 0
KWT1 131212Z 15004KT 18/10 A2989 RMK A01 T01820097  RH  058%=      5-min Rain = 0
KWT1 131213Z 15004KT 18/10 A2989 RMK A01 T01820098  RH  058%=      5-min Rain = 0
KWT1 131214Z 14003KT 18/10 A2989 RMK A01 T01820098  RH  058%=      5-min Rain = 0
KWT1 131215Z 14003KT 18/10 A2989 RMK A01 T01820098  RH  058%=      5-min Rain = 0
KWT1 131216Z 14003KT 18/10 A2989 RMK A01 T01810097  RH  058%=      5-min Rain = 0
KWT1 131217Z 14003KT 18/10 A2989 RMK A01 T01810097  RH  058%=      5-min Rain = 0
KWT1 131218Z 14002KT 18/10 A2989 RMK A01 T01810097  RH  058%=      5-min Rain = 0
KWT1 131219Z 13002KT 18/10 A2989 RMK A01 T01810097  RH  058%=      5-min Rain = 0
KWT1 131220Z 13002KT 18/10 A2989 RMK A01 T01810098  RH  058%=      5-min Rain = 0
KWT1 131221Z 12001KT 18/10 A2989 RMK A01 T01800097  RH  058%=      5-min Rain = 0
KWT1 131222Z 11001KT 18/10 A2989 RMK A01 T01800098  RH  059%=      5-min Rain = 0
KWT1 131223Z 10001KT 18/10 A2989 RMK A01 T01790098  RH  059%=      5-min Rain = 0
KWT1 131224Z 08001KT 18/10 A2989 RMK A01 T01790098  RH  059%=      5-min Rain = 0
KWT1 131225Z 07002KT 18/10 A2989 RMK A01 T01780098  RH  060%=      5-min Rain = 0
KWT1 131226Z 07002KT 18/10 A2989 RMK A01 T01770098  RH  060%=      5-min Rain = 0
KWT1 131227Z 07002KT 18/10 A2989 RMK A01 T01760098  RH  060%=      5-min Rain = 0
KWT1 131228Z 08002KT 18/10 A2989 RMK A01 T01760098  RH  060%=      5-min Rain = 0
KWT1 131229Z 08002KT 18/10 A2989 RMK A01 T01760098  RH  060%=      5-min Rain = 0
KWT1 131230Z 09002KT 18/10 A2989 RMK A01 T01760098  RH  060%=      5-min Rain = 0
KWT1 131231Z 10002KT 18/10 A2989 RMK A01 T01760098  RH  060%=      5-min Rain = 0
KWT1 131232Z 10002KT 18/10 A2989 RMK A01 T01760097  RH  060%=      5-min Rain = 0
KWT1 131233Z 10002KT 18/10 A2989 RMK A01 T01760098  RH  060%=      5-min Rain = 0
KWT1 131234Z 10002KT 18/10 A2989 RMK A01 T01760098  RH  060%=      5-min Rain = 0
KWT1 131235Z 11002KT 18/10 A2989 RMK A01 T01760098  RH  060%=      5-min Rain = 0
KWT1 131236Z 11002KT 18/10 A2989 RMK A01 T01760099  RH  060%=      5-min Rain = 0
KWT1 131237Z 10002KT 18/10 A2989 RMK A01 T01770100  RH  061%=      5-min Rain = 0
KWT1 131238Z 10002KT 18/10 A2989 RMK A01 T01770099  RH  061%=      5-min Rain = 0
KWT1 131239Z 11002KT 18/10 A2989 RMK A01 T01770100  RH  060%=      5-min Rain = 0
KWT1 131240Z 11002KT 18/10 A2989 RMK A01 T01780100  RH  060%=      5-min Rain = 0
KWT1 131241Z 11002KT 18/10 A2989 RMK A01 T01780101  RH  061%=      5-min Rain = 0
KWT1 131242Z 11002KT 18/10 A2989 RMK A01 T01780101  RH  060%=      5-min Rain = 0
KWT1 131243Z 11002KT 18/10 A2989 RMK A01 T01780101  RH  060%=      5-min Rain = 0
KWT1 131244Z 11001KT 18/10 A2989 RMK A01 T01780100  RH  060%=      5-min Rain = 0
KWT1 131245Z 13001KT 18/10 A2989 RMK A01 T01790100  RH  060%=      5-min Rain = 0
KWT1 131246Z 14001KT 18/10 A2989 RMK A01 T01790100  RH  060%=      5-min Rain = 0
KWT1 131247Z 12000KT 18/10 A2989 RMK A01 T01800100  RH  059%=      5-min Rain = 0
KWT1 131248Z 11001KT 18/10 A2989 RMK A01 T01810100  RH  059%=      5-min Rain = 0
KWT1 131249Z 11001KT 18/10 A2989 RMK A01 T01810100  RH  059%=      5-min Rain = 0
KWT1 131250Z 12001KT 18/10 A2989 RMK A01 T01820099  RH  058%=      5-min Rain = 0
KWT1 131251Z 12000KT 18/10 A2989 RMK A01 T01820099  RH  058%=      5-min Rain = 0
KWT1 131252Z 15000KT 18/10 A2989 RMK A01 T01830099  RH  058%=      5-min Rain = 0
KWT1 131253Z 19000KT 18/10 A2989 RMK A01 T01820100  RH  059%=      5-min Rain = 0
KWT1 131254Z 20001KT 18/10 A2989 RMK A01 T01810100  RH  059%=      5-min Rain = 0
KWT1 131255Z 20001KT 18/10 A2989 RMK A01 T01820100  RH  059%=      5-min Rain = 0
KWT1 131256Z 19001KT 18/10 A2989 RMK A01 T01820102  RH  059%=      5-min Rain = 0
KWT1 131257Z 18001KT 18/10 A2989 RMK A01 T01830103  RH  060%=      5-min Rain = 0
KWT1 131258Z 18001KT 18/10 A299 RMK A01 T01830104  RH  060%=      5-min Rain = 0
KWT1 131259Z 20001KT 18/11 A299 RMK A01 T01840105  RH  060%=      5-min Rain = 0
KWT1 131300Z 24002KT 18/11 A299 RMK A01 T01840107  RH  061%=      5-min Rain = 0
KWT1 131301Z 25002KT 18/11 A299 RMK A01 T01820105  RH  060%=      5-min Rain = 0
KWT1 131302Z 24001KT 18/10 A299 RMK A01 T01820104  RH  060%=      5-min Rain = 0
KWT1 131303Z 23001KT 18/10 A299 RMK A01 T01820103  RH  060%=      5-min Rain = 0
KWT1 131304Z 23001KT 18/10 A299 RMK A01 T01820103  RH  060%=      5-min Rain = 0
KWT1 131305Z 21001KT 18/10 A299 RMK A01 T01820102  RH  059%=      5-min Rain = 0
KWT1 131306Z 22001KT 18/10 A299 RMK A01 T01830103  RH  059%=      5-min Rain = 0
KWT1 131307Z 22001KT 18/10 A299 RMK A01 T01840104  RH  060%=      5-min Rain = 0
KWT1 131308Z 20001KT 19/10 A299 RMK A01 T01850102  RH  058%=      5-min Rain = 0
KWT1 131309Z 19002KT 19/10 A299 RMK A01 T01860102  RH  058%=      5-min Rain = 0
KWT1 131310Z 18002KT 19/10 A299 RMK A01 T01880103  RH  058%=      5-min Rain = 0
KWT1 131311Z 18002KT 19/10 A299 RMK A01 T01900103  RH  057%=      5-min Rain = 0
KWT1 131312Z 18002KT 19/10 A299 RMK A01 T01920098  RH  055%=      5-min Rain = 0
KWT1 131313Z 19002KT 19/10 A299 RMK A01 T01930097  RH  054%=      5-min Rain = 0
KWT1 131314Z 19002KT 20/10 A299 RMK A01 T01950100  RH  054%=      5-min Rain = 0
KWT1 131315Z 19002KT 20/10 A299 RMK A01 T01960101  RH  054%=      5-min Rain = 0
KWT1 131316Z 19002KT 20/10 A299 RMK A01 T01970102  RH  054%=      5-min Rain = 0
KWT1 131317Z 19002KT 20/10 A299 RMK A01 T01980101  RH  054%=      5-min Rain = 0
KWT1 131318Z 18002KT 20/10 A299 RMK A01 T01990098  RH  052%=      5-min Rain = 0
KWT1 131319Z 18002KT 20/10 A299 RMK A01 T01990100  RH  053%=      5-min Rain = 0
KWT1 131320Z 17002KT 20/10 A299 RMK A01 T02000099  RH  052%=      5-min Rain = 0
KWT1 131321Z 17002KT 20/10 A299 RMK A01 T02010099  RH  052%=      5-min Rain = 0
KWT1 131322Z 17001KT 20/10 A299 RMK A01 T02020100  RH  052%=      5-min Rain = 0
KWT1 131323Z 17002KT 20/10 A299 RMK A01 T02040101  RH  052%=      5-min Rain = 0
KWT1 131324Z 16002KT 20/10 A299 RMK A01 T02040102  RH  052%=      5-min Rain = 0
KWT1 131325Z 16002KT 21/10 A299 RMK A01 T02050104  RH  052%=      5-min Rain = 0
KWT1 131326Z 16003KT 21/10 A299 RMK A01 T02050103  RH  052%=      5-min Rain = 0
KWT1 131327Z 16003KT 21/10 A299 RMK A01 T02060101  RH  051%=      5-min Rain = 0
KWT1 131328Z 15003KT 21/10 A299 RMK A01 T02070100  RH  050%=      5-min Rain = 0
KWT1 131329Z 16003KT 21/10 A299 RMK A01 T02070098  RH  050%=      5-min Rain = 0
KWT1 131330Z 15002KT 21/10 A299 RMK A01 T02080099  RH  050%=      5-min Rain = 0
KWT1 131331Z 15003KT 21/10 A299 RMK A01 T02080100  RH  050%=      5-min Rain = 0
KWT1 131332Z 16003KT 21/10 A299 RMK A01 T02080099  RH  050%=      5-min Rain = 0
KWT1 131333Z 15003KT 21/10 A299 RMK A01 T02080098  RH  049%=      5-min Rain = 0
KWT1 131334Z 15003KT 21/10 A2991 RMK A01 T02090100  RH  049%=      5-min Rain = 0
KWT1 131335Z 15003KT 21/10 A2991 RMK A01 T02090101  RH  050%=      5-min Rain = 0
KWT1 131336Z 15003KT 21/10 A2991 RMK A01 T02090102  RH  050%=      5-min Rain = 0
KWT1 131337Z 15002KT 21/10 A2991 RMK A01 T02100101  RH  049%=      5-min Rain = 0
KWT1 131338Z 15003KT 21/10 A2991 RMK A01 T02110100  RH  049%=      5-min Rain = 0
KWT1 131339Z 16003KT 21/10 A2991 RMK A01 T02130098  RH  048%=      5-min Rain = 0
KWT1 131340Z 15003KT 21/10 A2991 RMK A01 T02140097  RH  047%=      5-min Rain = 0
KWT1 131341Z 14004KT 22/10 A2991 RMK A01 T02150095  RH  046%=      5-min Rain = 0
KWT1 131342Z 15004KT 22/10 A2991 RMK A01 T02160095  RH  046%=      5-min Rain = 0
KWT1 131343Z 14004KT 22/10 A2991 RMK A01 T02170096  RH  046%=      5-min Rain = 0
KWT1 131344Z 14004KT 22/09 A2991 RMK A01 T02180094  RH  045%=      5-min Rain = 0
KWT1 131345Z 13004KT 22/10 A2991 RMK A01 T02180096  RH  046%=      5-min Rain = 0
KWT1 131346Z 14004KT 22/10 A2991 RMK A01 T02190096  RH  046%=      5-min Rain = 0
KWT1 131347Z 14005KT 22/10 A2991 RMK A01 T02200096  RH  045%=      5-min Rain = 0
KWT1 131348Z 15004KT 22/10 A2991 RMK A01 T02200095  RH  045%=      5-min Rain = 0
KWT1 131349Z 14003KT 22/10 A2991 RMK A01 T02210096  RH  045%=      5-min Rain = 0
KWT1 131350Z 14005KT 22/10 A2991 RMK A01 T02220096  RH  044%=      5-min Rain = 0
KWT1 131351Z 14006KT 22/10 A2991 RMK A01 T02230096  RH  044%=      5-min Rain = 0
KWT1 131352Z 15005KT 22/09 A2991 RMK A01 T02230092  RH  043%=      5-min Rain = 0
KWT1 131353Z 16005KT 22/10 A2991 RMK A01 T02240095  RH  044%=      5-min Rain = 0
KWT1 131354Z 15005KT 23/10 A2991 RMK A01 T02250095  RH  044%=      5-min Rain = 0
KWT1 131355Z 14005KT 23/10 A2991 RMK A01 T02260096  RH  044%=      5-min Rain = 0
KWT1 131356Z 15007KT 23/10 A2991 RMK A01 T02270095  RH  043%=      5-min Rain = 0
KWT1 131357Z 15006KT 23/09 A2991 RMK A01 T02280093  RH  042%=      5-min Rain = 0
KWT1 131358Z 15006KT 23/09 A2991 RMK A01 T02270093  RH  042%=      5-min Rain = 0
KWT1 131359Z 15005KT 23/10 A2991 RMK A01 T02270095  RH  043%=      5-min Rain = 0
KWT1 131400Z 15005KT 23/10 A2991 RMK A01 T02280095  RH  043%=      5-min Rain = 0
KWT1 131401Z 16005KT 23/10 A2991 RMK A01 T02290096  RH  043%=      5-min Rain = 0
KWT1 131402Z 17005KT 23/09 A2991 RMK A01 T02300094  RH  042%=      5-min Rain = 0
KWT1 131403Z 17005KT 23/09 A2991 RMK A01 T02300093  RH  042%=      5-min Rain = 0
KWT1 131404Z 15006KT 23/10 A2991 RMK A01 T02300095  RH  042%=      5-min Rain = 0
KWT1 131405Z 16006KT 23/09 A2991 RMK A01 T02310094  RH  042%=      5-min Rain = 0
KWT1 131406Z 16005KT 23/09 A2991 RMK A01 T02310094  RH  042%=      5-min Rain = 0
KWT1 131407Z 16005KT 23/10 A299 RMK A01 T02310095  RH  042%=      5-min Rain = 0
KWT1 131408Z 16005KT 23/10 A299 RMK A01 T02330095  RH  042%=      5-min Rain = 0
KWT1 131409Z 14006KT 23/09 A299 RMK A01 T02330094  RH  041%=      5-min Rain = 0
KWT1 131410Z 14006KT 23/09 A299 RMK A01 T02330094  RH  041%=      5-min Rain = 0
KWT1 131411Z 14007KT 23/09 A299 RMK A01 T02340094  RH  041%=      5-min Rain = 0
KWT1 131412Z 14006KT 23/10 A2991 RMK A01 T02340095  RH  041%=      5-min Rain = 0
KWT1 131413Z 14007KT 24/10 A2991 RMK A01 T02350095  RH  041%=      5-min Rain = 0
KWT1 131414Z 15007KT 24/10 A2991 RMK A01 T02360095  RH  041%=      5-min Rain = 0
KWT1 131415Z 15006KT 24/10 A299 RMK A01 T02370095  RH  041%=      5-min Rain = 0
KWT1 131416Z 14005KT 24/10 A299 RMK A01 T02370096  RH  041%=      5-min Rain = 0
KWT1 131417Z 14006KT 24/10 A299 RMK A01 T02380097  RH  041%=      5-min Rain = 0
KWT1 131418Z 14007KT 24/10 A299 RMK A01 T02390096  RH  040%=      5-min Rain = 0
KWT1 131419Z 14007KT 24/10 A299 RMK A01 T02390095  RH  040%=      5-min Rain = 0
KWT1 131420Z 15007KT 24/10 A299 RMK A01 T02390095  RH  040%=      5-min Rain = 0
KWT1 131421Z 14005KT 24/10 A299 RMK A01 T02390097  RH  040%=      5-min Rain = 0
KWT1 131422Z 15007KT 24/10 A2991 RMK A01 T02400097  RH  040%=      5-min Rain = 0
KWT1 131423Z 15006KT 24/10 A2991 RMK A01 T02400096  RH  040%=      5-min Rain = 0
KWT1 131424Z 14005KT 24/10 A2991 RMK A01 T02400096  RH  040%=      5-min Rain = 0
KWT1 131425Z 12005KT 24/10 A2991 RMK A01 T02400099  RH  041%=      5-min Rain = 0
KWT1 131426Z 13006KT 24/10 A2991 RMK A01 T02420099  RH  040%=      5-min Rain = 0
KWT1 131427Z 15006KT 24/10 A2991 RMK A01 T02420096  RH  040%=      5-min Rain = 0
KWT1 131428Z 13005KT 24/10 A2991 RMK A01 T02420098  RH  040%=      5-min Rain = 0
KWT1 131429Z 14006KT 24/10 A2991 RMK A01 T02430099  RH  040%=      5-min Rain = 0
KWT1 131430Z 15006KT 24/10 A2991 RMK A01 T02440099  RH  040%=      5-min Rain = 0
KWT1 131431Z 14007KT 24/10 A2991 RMK A01 T02440098  RH  039%=      5-min Rain = 0
KWT1 131432Z 14007KT 24/10 A2991 RMK A01 T02440099  RH  040%=      5-min Rain = 0
KWT1 131433Z 15007KT 24/10 A2991 RMK A01 T02440098  RH  039%=      5-min Rain = 0
KWT1 131434Z 15007KT 24/10 A2991 RMK A01 T02440099  RH  040%=      5-min Rain = 0
KWT1 131435Z 15006KT 25/10 A2991 RMK A01 T02450098  RH  039%=      5-min Rain = 0
KWT1 131436Z 15005KT 25/10 A2991 RMK A01 T02460099  RH  039%=      5-min Rain = 0
KWT1 131437Z 16006KT 25/10 A2991 RMK A01 T02470098  RH  039%=      5-min Rain = 0
KWT1 131438Z 15006KT 25/10 A2991 RMK A01 T02480098  RH  039%=      5-min Rain = 0
KWT1 131439Z 16006KT 25/10 A2991 RMK A01 T02480099  RH  039%=      5-min Rain = 0
KWT1 131440Z 16006KT 25/10 A2991 RMK A01 T02490099  RH  039%=      5-min Rain = 0
KWT1 131441Z 15006KT 25/10 A2991 RMK A01 T02490098  RH  038%=      5-min Rain = 0
KWT1 131442Z 16005KT 25/10 A2991 RMK A01 T02490100  RH  039%=      5-min Rain = 0
KWT1 131443Z 16006KT 25/10 A2991 RMK A01 T02510098  RH  038%=      5-min Rain = 0
KWT1 131444Z 15007KT 25/10 A2991 RMK A01 T02510097  RH  038%=      5-min Rain = 0
KWT1 131445Z 16007KT 25/10 A2991 RMK A01 T02520098  RH  038%=      5-min Rain = 0
KWT1 131446Z 16005KT 25/10 A2991 RMK A01 T02520099  RH  038%=      5-min Rain = 0
KWT1 131447Z 16007KT 25/10 A2991 RMK A01 T02540100  RH  038%=      5-min Rain = 0
KWT1 131448Z 14007KT 26/10 A299 RMK A01 T02550099  RH  037%=      5-min Rain = 0
KWT1 131449Z 15007KT 26/10 A299 RMK A01 T02550098  RH  037%=      5-min Rain = 0
KWT1 131450Z 14007KT 26/10 A299 RMK A01 T02560099  RH  037%=      5-min Rain = 0
KWT1 131451Z 14007KT 26/10 A299 RMK A01 T02560099  RH  037%=      5-min Rain = 0
KWT1 131452Z 14006KT 26/10 A299 RMK A01 T02560100  RH  037%=      5-min Rain = 0
KWT1 131453Z 15007KT 26/10 A299 RMK A01 T02570099  RH  037%=      5-min Rain = 0
KWT1 131454Z 15007KT 26/10 A299 RMK A01 T02580097  RH  036%=      5-min Rain = 0
KWT1 131455Z 15007KT 26/10 A299 RMK A01 T02580098  RH  036%=      5-min Rain = 0
KWT1 131456Z 16007KT 26/10 A299 RMK A01 T02590099  RH  036%=      5-min Rain = 0
KWT1 131457Z 14005KT 26/10 A299 RMK A01 T02590098  RH  036%=      5-min Rain = 0
KWT1 131458Z 13006KT 26/10 A299 RMK A01 T02600100  RH  036%=      5-min Rain = 0
KWT1 131459Z 14006KT 26/10 A2991 RMK A01 T02610099  RH  036%=      5-min Rain = 0
KWT1 131500Z 15004KT 26/10 A2991 RMK A01 T02620098  RH  035%=      5-min Rain = 0
KWT1 131501Z 15004KT 26/10 A2991 RMK A01 T02630100  RH  036%=      5-min Rain = 0
KWT1 131502Z 15007KT 27/10 A2991 RMK A01 T02650100  RH  035%=      5-min Rain = 0
KWT1 131503Z 14007KT 27/10 A2991 RMK A01 T02670098  RH  034%=      5-min Rain = 0
KWT1 131504Z 14006KT 27/10 A2991 RMK A01 T02670099  RH  035%=      5-min Rain = 0
KWT1 131505Z 14007KT 27/10 A2991 RMK A01 T02680099  RH  035%=      5-min Rain = 0
KWT1 131506Z 15008KT 27/10 A2991 RMK A01 T02700099  RH  034%=      5-min Rain = 0
KWT1 131507Z 16008KT 27/10 A2991 RMK A01 T02710098  RH  034%=      5-min Rain = 0
KWT1 131508Z 17006KT 27/10 A2991 RMK A01 T02700097  RH  034%=      5-min Rain = 0
KWT1 131509Z 16007KT 27/10 A2991 RMK A01 T02700098  RH  034%=      5-min Rain = 0
KWT1 131510Z 16007KT 27/10 A2991 RMK A01 T02700095  RH  033%=      5-min Rain = 0
KWT1 131511Z 16008KT 27/10 A2991 RMK A01 T02710097  RH  034%=      5-min Rain = 0
KWT1 131512Z 18007KT 27/10 A2991 RMK A01 T02720096  RH  033%=      5-min Rain = 0
KWT1 131513Z 16007KT 27/10 A2991 RMK A01 T02700095  RH  033%=      5-min Rain = 0
KWT1 131514Z 16006KT 27/10 A2991 RMK A01 T02700095  RH  033%=      5-min Rain = 0
KWT1 131515Z 16007KT 27/10 A2991 RMK A01 T02710096  RH  033%=      5-min Rain = 0
KWT1 131516Z 16006KT 27/10 A2991 RMK A01 T02730098  RH  033%=      5-min Rain = 0
KWT1 131517Z 15007KT 27/10 A2991 RMK A01 T02740098  RH  033%=      5-min Rain = 0
KWT1 131518Z 13006KT 28/10 A2991 RMK A01 T02760097  RH  033%=      5-min Rain = 0
KWT1 131519Z 13005KT 28/10 A2991 RMK A01 T02770099  RH  033%=      5-min Rain = 0
KWT1 131520Z 15006KT 28/10 A2991 RMK A01 T02790100  RH  033%=      5-min Rain = 0
KWT1 131521Z 15006KT 28/10 A2991 RMK A01 T02810098  RH  032%=      5-min Rain = 0
KWT1 131522Z 15007KT 28/10 A2991 RMK A01 T02800097  RH  032%=      5-min Rain = 0
KWT1 131523Z 15008KT 28/10 A2991 RMK A01 T02800096  RH  032%=      5-min Rain = 0
KWT1 131524Z 16007KT 28/10 A2991 RMK A01 T02800096  RH  031%=      5-min Rain = 0
KWT1 131525Z 16006KT 28/10 A2991 RMK A01 T02800096  RH  032%=      5-min Rain = 0
KWT1 131526Z 15007KT 28/10 A2991 RMK A01 T02800097  RH  032%=      5-min Rain = 0
KWT1 131527Z 15006KT 28/10 A2991 RMK A01 T02810097  RH  032%=      5-min Rain = 0
KWT1 131528Z 15007KT 28/10 A2991 RMK A01 T02830099  RH  032%=      5-min Rain = 0
KWT1 131529Z 15008KT 29/10 A2991 RMK A01 T02850097  RH  031%=      5-min Rain = 0
KWT1 131530Z 14009KT 28/10 A2991 RMK A01 T02840096  RH  031%=      5-min Rain = 0
KWT1 131531Z 14008KT 28/10 A2991 RMK A01 T02840095  RH  031%=      5-min Rain = 0
KWT1 131532Z 16006KT 28/10 A2991 RMK A01 T02840096  RH  031%=      5-min Rain = 0
KWT1 131533Z 17007KT 29/10 A2991 RMK A01 T02850097  RH  031%=      5-min Rain = 0
KWT1 131534Z 16006KT 29/10 A2991 RMK A01 T02860098  RH  031%=      5-min Rain = 0
KWT1 131535Z 14007KT 29/10 A2991 RMK A01 T02880100  RH  031%=      5-min Rain = 0
KWT1 131536Z 15007KT 29/10 A2991 RMK A01 T02890098  RH  030%=      5-min Rain = 0
KWT1 131537Z 16007KT 29/10 A2991 RMK A01 T02880098  RH  031%=      5-min Rain = 0
KWT1 131538Z 16007KT 29/10 A2991 RMK A01 T02870097  RH  031%=      5-min Rain = 0
KWT1 131539Z 16007KT 29/10 A2991 RMK A01 T02880096  RH  030%=      5-min Rain = 0
KWT1 131540Z 16008KT 29/10 A2991 RMK A01 T02880096  RH  030%=      5-min Rain = 0
KWT1 131541Z 15007KT 29/10 A2991 RMK A01 T02890097  RH  030%=      5-min Rain = 0
KWT1 131542Z 16006KT 29/10 A2991 RMK A01 T02910099  RH  030%=      5-min Rain = 0
KWT1 131543Z 16008KT 29/10 A2991 RMK A01 T02940098  RH  030%=      5-min Rain = 0
KWT1 131544Z 16006KT 29/10 A2991 RMK A01 T02940097  RH  029%=      5-min Rain = 0
KWT1 131545Z 15007KT 29/10 A2991 RMK A01 T02930099  RH  030%=      5-min Rain = 0
KWT1 131546Z 15007KT 29/10 A2991 RMK A01 T02940101  RH  030%=      5-min Rain = 0
KWT1 131547Z 13006KT 30/10 A2991 RMK A01 T02960099  RH  029%=      5-min Rain = 0
KWT1 131548Z 13009KT 30/10 A2991 RMK A01 T02950099  RH  029%=      5-min Rain = 0
KWT1 131549Z 14008KT 30/10 A2991 RMK A01 T02950099  RH  030%=      5-min Rain = 0
KWT1 131550Z 14008KT 30/10 A2991 RMK A01 T02950100  RH  030%=      5-min Rain = 0
KWT1 131551Z 14009KT 30/10 A2991 RMK A01 T02950099  RH  030%=      5-min Rain = 0
KWT1 131552Z 15008KT 30/10 A2991 RMK A01 T02950099  RH  029%=      5-min Rain = 0
KWT1 131553Z 15009KT 29/10 A2991 RMK A01 T02940098  RH  030%=      5-min Rain = 0
KWT1 131554Z 14008KT 30/10 A2991 RMK A01 T02950099  RH  030%=      5-min Rain = 0
KWT1 131555Z 13010KT 30/10 A2991 RMK A01 T02970101  RH  030%=      5-min Rain = 0
KWT1 131556Z 14010KT 30/10 A2991 RMK A01 T02990100  RH  029%=      5-min Rain = 0
KWT1 131557Z 14008KT 30/10 A2991 RMK A01 T02990100  RH  029%=      5-min Rain = 0
KWT1 131558Z 13007KT 30/10 A2991 RMK A01 T02990101  RH  029%=      5-min Rain = 0
KWT1 131559Z 15007KT 30/10 A2991 RMK A01 T03010102  RH  029%=      5-min Rain = 0
KWT1 131600Z 17009KT 30/10 A2991 RMK A01 T03020100  RH  029%=      5-min Rain = 0
KWT1 131601Z 16009KT 30/10 A2991 RMK A01 T02990098  RH  029%=      5-min Rain = 0
KWT1 131602Z 17009KT 30/10 A2991 RMK A01 T02980100  RH  029%=      5-min Rain = 0
KWT1 131603Z 15009KT 30/10 A2991 RMK A01 T02980100  RH  029%=      5-min Rain = 0
KWT1 131604Z 16009KT 30/10 A2991 RMK A01 T02980100  RH  029%=      5-min Rain = 0
KWT1 131605Z 16008KT 30/10 A2991 RMK A01 T02980102  RH  030%=      5-min Rain = 0
KWT1 131606Z 17010KT 30/10 A2991 RMK A01 T03000101  RH  029%=      5-min Rain = 0
KWT1 131607Z 17008KT 30/10 A2991 RMK A01 T02980100  RH  029%=      5-min Rain = 0
KWT1 131608Z 16009KT 30/10 A2991 RMK A01 T02980102  RH  030%=      5-min Rain = 0
KWT1 131609Z 17011KT 30/10 A299 RMK A01 T03000101  RH  029%=      5-min Rain = 0
KWT1 131610Z 17008KT 30/10 A299 RMK A01 T02980099  RH  029%=      5-min Rain = 0
KWT1 131611Z 16008KT 30/10 A299 RMK A01 T02950100  RH  030%=      5-min Rain = 0
KWT1 131612Z 16005KT 30/10 A299 RMK A01 T02950100  RH  030%=      5-min Rain = 0
KWT1 131613Z 15007KT 30/10 A299 RMK A01 T02960102  RH  030%=      5-min Rain = 0
KWT1 131614Z 16007KT 30/10 A299 RMK A01 T02970101  RH  030%=      5-min Rain = 0
KWT1 131615Z 14009KT 30/10 A299 RMK A01 T02960102  RH  030%=      5-min Rain = 0
KWT1 131616Z 13008KT 30/10 A299 RMK A01 T02980104  RH  030%=      5-min Rain = 0
KWT1 131617Z 13008KT 30/11 A299 RMK A01 T03010106  RH  030%=      5-min Rain = 0
KWT1 131618Z 13008KT 30/11 A299 RMK A01 T03040107  RH  030%=      5-min Rain = 0
KWT1 131619Z 13009KT 31/10 A299 RMK A01 T03050104  RH  029%=      5-min Rain = 0
KWT1 131620Z 14008KT 31/11 A299 RMK A01 T03050106  RH  029%=      5-min Rain = 0
KWT1 131621Z 14009KT 31/11 A299 RMK A01 T03070106  RH  029%=      5-min Rain = 0
KWT1 131622Z 14011KT 31/10 A299 RMK A01 T03070104  RH  028%=      5-min Rain = 0
KWT1 131623Z 15009KT 31/10 A299 RMK A01 T03050103  RH  029%=      5-min Rain = 0
KWT1 131624Z 15009KT 30/10 A299 RMK A01 T03030103  RH  029%=      5-min Rain = 0
KWT1 131625Z 14009KT 30/10 A299 RMK A01 T03030104  RH  029%=      5-min Rain = 0
KWT1 131626Z 15010KT 30/10 A299 RMK A01 T03040103  RH  029%=      5-min Rain = 0
KWT1 131627Z 15009KT 30/10 A299 RMK A01 T03030103  RH  029%=      5-min Rain = 0
KWT1 131628Z 15008KT 30/10 A299 RMK A01 T03010103  RH  029%=      5-min Rain = 0
KWT1 131629Z 15007KT 30/10 A299 RMK A01 T03010103  RH  029%=      5-min Rain = 0
KWT1 131630Z 17008KT 30/11 A299 RMK A01 T03020105  RH  030%=      5-min Rain = 0
KWT1 131631Z 16008KT 30/11 A299 RMK A01 T03030105  RH  029%=      5-min Rain = 0
KWT1 131632Z 17008KT 30/10 A299 RMK A01 T03040104  RH  029%=      5-min Rain = 0
KWT1 131633Z 18007KT 30/10 A299 RMK A01 T03020103  RH  029%=      5-min Rain = 0
KWT1 131634Z 18007KT 30/10 A299 RMK A01 T03000104  RH  030%=      5-min Rain = 0
KWT1 131635Z 16006KT 30/10 A299 RMK A01 T03000104  RH  030%=      5-min Rain = 0
KWT1 131636Z 17008KT 30/11 A299 RMK A01 T03010105  RH  030%=      5-min Rain = 0
KWT1 131637Z 17007KT 30/11 A299 RMK A01 T03020106  RH  030%=      5-min Rain = 0
KWT1 131638Z 15008KT 31/11 A299 RMK A01 T03050107  RH  029%=      5-min Rain = 0
KWT1 131639Z 14008KT 31/11 A299 RMK A01 T03080107  RH  029%=      5-min Rain = 0
KWT1 131640Z 14007KT 31/11 A299 RMK A01 T03090106  RH  029%=      5-min Rain = 0
KWT1 131641Z 16008KT 31/11 A299 RMK A01 T03080108  RH  029%=      5-min Rain = 0
KWT1 131642Z 18007KT 31/11 A299 RMK A01 T03090107  RH  029%=      5-min Rain = 0
KWT1 131643Z 16008KT 31/11 A299 RMK A01 T03090107  RH  029%=      5-min Rain = 0
KWT1 131644Z 16006KT 31/11 A299 RMK A01 T03090107  RH  029%=      5-min Rain = 0
KWT1 131645Z 16006KT 31/11 A299 RMK A01 T03070107  RH  029%=      5-min Rain = 0
KWT1 131646Z 17009KT 31/11 A299 RMK A01 T03070106  RH  029%=      5-min Rain = 0
KWT1 131647Z 16009KT 31/11 A299 RMK A01 T03080107  RH  029%=      5-min Rain = 0
KWT1 131648Z 18009KT 31/11 A299 RMK A01 T03080106  RH  029%=      5-min Rain = 0
KWT1 131649Z 17008KT 31/11 A299 RMK A01 T03060107  RH  029%=      5-min Rain = 0
KWT1 131650Z 17009KT 31/11 A299 RMK A01 T03070107  RH  029%=      5-min Rain = 0
KWT1 131651Z 15010KT 31/11 A299 RMK A01 T03070107  RH  029%=      5-min Rain = 0
KWT1 131652Z 15009KT 31/11 A299 RMK A01 T03070106  RH  029%=      5-min Rain = 0
KWT1 131653Z 15010KT 31/11 A299 RMK A01 T03070107  RH  029%=      5-min Rain = 0
KWT1 131654Z 14008KT 31/11 A299 RMK A01 T03070107  RH  029%=      5-min Rain = 0
KWT1 131655Z 15009KT 31/11 A299 RMK A01 T03080109  RH  029%=      5-min Rain = 0
KWT1 131656Z 16007KT 31/11 A299 RMK A01 T03090107  RH  029%=      5-min Rain = 0
KWT1 131657Z 14006KT 31/11 A299 RMK A01 T03090107  RH  029%=      5-min Rain = 0
KWT1 131658Z 15008KT 31/11 A299 RMK A01 T03080108  RH  029%=      5-min Rain = 0
KWT1 131659Z 15008KT 31/11 A299 RMK A01 T03100110  RH  029%=      5-min Rain = 0
KWT1 131700Z 13008KT 31/11 A299 RMK A01 T03130112  RH  029%=      5-min Rain = 0
KWT1 131701Z 13009KT 32/11 A299 RMK A01 T03150110  RH  028%=      5-min Rain = 0
KWT1 131702Z 13010KT 32/11 A299 RMK A01 T03160111  RH  028%=      5-min Rain = 0
KWT1 131703Z 13009KT 31/11 A299 RMK A01 T03140110  RH  029%=      5-min Rain = 0
KWT1 131704Z 11008KT 31/11 A299 RMK A01 T03140111  RH  029%=      5-min Rain = 0
KWT1 131705Z 16009KT 32/11 A299 RMK A01 T03150112  RH  029%=      5-min Rain = 0
KWT1 131706Z 15009KT 32/11 A299 RMK A01 T03160110  RH  028%=      5-min Rain = 0
KWT1 131707Z 14009KT 32/11 A299 RMK A01 T03150111  RH  029%=      5-min Rain = 0
KWT1 131708Z 14007KT 32/11 A299 RMK A01 T03150110  RH  028%=      5-min Rain = 0
KWT1 131709Z 13004KT 32/11 A299 RMK A01 T03160111  RH  028%=      5-min Rain = 0
KWT1 131710Z 15006KT 32/11 A299 RMK A01 T03180112  RH  028%=      5-min Rain = 0
KWT1 131711Z 16009KT 32/11 A299 RMK A01 T03200113  RH  028%=      5-min Rain = 0
KWT1 131712Z 12009KT 32/11 A299 RMK A01 T03200113  RH  028%=      5-min Rain = 0
KWT1 131713Z 13006KT 32/11 A2989 RMK A01 T03210114  RH  028%=      5-min Rain = 0
KWT1 131714Z 14008KT 32/11 A2989 RMK A01 T03220114  RH  028%=      5-min Rain = 0
KWT1 131715Z 16008KT 32/11 A2989 RMK A01 T03230112  RH  027%=      5-min Rain = 0
KWT1 131716Z 13011KT 32/11 A2989 RMK A01 T03200112  RH  028%=      5-min Rain = 0
KWT1 131717Z 14009KT 32/11 A2989 RMK A01 T03210112  RH  028%=      5-min Rain = 0
KWT1 131718Z 12008KT 32/11 A2989 RMK A01 T03210112  RH  028%=      5-min Rain = 0
KWT1 131719Z 13006KT 32/11 A2989 RMK A01 T03210113  RH  028%=      5-min Rain = 0
KWT1 131720Z 14009KT 32/11 A2989 RMK A01 T03200112  RH  028%=      5-min Rain = 0
KWT1 131721Z 13010KT 32/11 A2989 RMK A01 T03220114  RH  028%=      5-min Rain = 0
KWT1 131722Z 14008KT 32/11 A2989 RMK A01 T03230112  RH  027%=      5-min Rain = 0
KWT1 131723Z 14008KT 32/11 A2989 RMK A01 T03200112  RH  028%=      5-min Rain = 0
KWT1 131724Z 13005KT 32/11 A2989 RMK A01 T03190112  RH  028%=      5-min Rain = 0
KWT1 131725Z 16006KT 32/11 A2989 RMK A01 T03180111  RH  028%=      5-min Rain = 0
KWT1 131726Z 13009KT 32/11 A2989 RMK A01 T03190113  RH  028%=      5-min Rain = 0
KWT1 131727Z 13009KT 32/11 A2989 RMK A01 T03210113  RH  028%=      5-min Rain = 0
KWT1 131728Z 15008KT 32/11 A2989 RMK A01 T03220112  RH  028%=      5-min Rain = 0
KWT1 131729Z 15008KT 32/11 A2989 RMK A01 T03210111  RH  028%=      5-min Rain = 0
KWT1 131730Z 13007KT 32/11 A2989 RMK A01 T03190112  RH  028%=      5-min Rain = 0
KWT1 131731Z 12003KT 32/11 A2989 RMK A01 T03200112  RH  028%=      5-min Rain = 0
KWT1 131732Z 12007KT 32/11 A2989 RMK A01 T03210112  RH  028%=      5-min Rain = 0
KWT1 131733Z 14007KT 32/11 A2989 RMK A01 T03220112  RH  028%=      5-min Rain = 0
KWT1 131734Z 16008KT 32/11 A2989 RMK A01 T03220113  RH  028%=      5-min Rain = 0
KWT1 131735Z 17009KT 32/11 A2989 RMK A01 T03230112  RH  028%=      5-min Rain = 0
KWT1 131736Z 17007KT 32/11 A2989 RMK A01 T03210111  RH  028%=      5-min Rain = 0
KWT1 131737Z 17005KT 32/11 A2989 RMK A01 T03190113  RH  028%=      5-min Rain = 0
KWT1 131738Z 15009KT 32/12 A2989 RMK A01 T03210115  RH  028%=      5-min Rain = 0
KWT1 131739Z 17007KT 33/11 A2989 RMK A01 T03250114  RH  028%=      5-min Rain = 0
KWT1 131740Z 18007KT 33/12 A2989 RMK A01 T03270115  RH  027%=      5-min Rain = 0
KWT1 131741Z 19008KT 33/11 A2989 RMK A01 T03280114  RH  027%=      5-min Rain = 0
KWT1 131742Z 20008KT 33/11 A2989 RMK A01 T03300114  RH  027%=      5-min Rain = 0
KWT1 131743Z 19007KT 33/11 A2989 RMK A01 T03290112  RH  027%=      5-min Rain = 0
KWT1 131744Z 18007KT 33/11 A2989 RMK A01 T03270111  RH  027%=      5-min Rain = 0
KWT1 131745Z 20004KT 33/11 A2989 RMK A01 T03250111  RH  027%=      5-min Rain = 0
KWT1 131746Z 16006KT 32/11 A2989 RMK A01 T03240113  RH  027%=      5-min Rain = 0
KWT1 131747Z 17008KT 33/11 A2989 RMK A01 T03270113  RH  027%=      5-min Rain = 0
KWT1 131748Z 17008KT 33/11 A2989 RMK A01 T03280112  RH  027%=      5-min Rain = 0
KWT1 131749Z 15006KT 33/11 A2989 RMK A01 T03290112  RH  027%=      5-min Rain = 0
KWT1 131750Z 18007KT 33/11 A2988 RMK A01 T03280113  RH  027%=      5-min Rain = 0
KWT1 131751Z 19006KT 33/11 A2988 RMK A01 T03270113  RH  027%=      5-min Rain = 0
KWT1 131752Z 19007KT 33/11 A2988 RMK A01 T03270112  RH  027%=      5-min Rain = 0
KWT1 131753Z 19009KT 33/11 A2988 RMK A01 T03250112  RH  027%=      5-min Rain = 0
KWT1 131754Z 15010KT 32/11 A2988 RMK A01 T03240112  RH  027%=      5-min Rain = 0
KWT1 131755Z 15007KT 32/11 A2988 RMK A01 T03240114  RH  028%=      5-min Rain = 0
KWT1 131756Z 17009KT 33/12 A2988 RMK A01 T03280115  RH  027%=      5-min Rain = 0
KWT1 131757Z 18009KT 33/11 A2988 RMK A01 T03310113  RH  026%=      5-min Rain = 0
KWT1 131758Z 16006KT 33/11 A2988 RMK A01 T03280111  RH  026%=      5-min Rain = 0
KWT1 131759Z 15006KT 33/11 A2988 RMK A01 T03270110  RH  026%=      5-min Rain = 0
KWT1 131800Z 17004KT 33/11 A2988 RMK A01 T03260111  RH  027%=      5-min Rain = 0
KWT1 131801Z 18009KT 33/11 A2988 RMK A01 T03290113  RH  027%=      5-min Rain = 0
KWT1 131802Z 21010KT 33/11 A2988 RMK A01 T03300112  RH  026%=      5-min Rain = 0
KWT1 131803Z 18008KT 33/11 A2988 RMK A01 T03290112  RH  027%=      5-min Rain = 0
KWT1 131804Z 17006KT 33/11 A2988 RMK A01 T03280110  RH  026%=      5-min Rain = 0
KWT1 131805Z 14009KT 33/11 A2988 RMK A01 T03280111  RH  027%=      5-min Rain = 0
KWT1 131806Z 15007KT 33/11 A2988 RMK A01 T03290110  RH  026%=      5-min Rain = 0
KWT1 131807Z 12007KT 33/11 A2988 RMK A01 T03290111  RH  026%=      5-min Rain = 0
KWT1 131808Z 14006KT 33/11 A2988 RMK A01 T03280112  RH  027%=      5-min Rain = 0
KWT1 131809Z 13005KT 33/11 A2988 RMK A01 T03290114  RH  027%=      5-min Rain = 0
KWT1 131810Z 12008KT 33/12 A2987 RMK A01 T03340116  RH  027%=      5-min Rain = 0
KWT1 131811Z 13008KT 34/12 A2987 RMK A01 T03360115  RH  026%=      5-min Rain = 0
KWT1 131812Z 12010KT 34/12 A2987 RMK A01 T03360115  RH  026%=      5-min Rain = 0
KWT1 131813Z 12010KT 34/11 A2987 RMK A01 T03350113  RH  026%=      5-min Rain = 0
KWT1 131814Z 14010KT 33/11 A2987 RMK A01 T03330113  RH  026%=      5-min Rain = 0
KWT1 131815Z 13010KT 33/11 A2987 RMK A01 T03330112  RH  026%=      5-min Rain = 0
KWT1 131816Z 13007KT 33/11 A2987 RMK A01 T03330112  RH  026%=      5-min Rain = 0
KWT1 131817Z 16008KT 33/11 A2987 RMK A01 T03340114  RH  026%=      5-min Rain = 0
KWT1 131818Z 17007KT 34/11 A2987 RMK A01 T03350109  RH  025%=      5-min Rain = 0
KWT1 131819Z 17003KT 33/11 A2987 RMK A01 T03300107  RH  026%=      5-min Rain = 0
KWT1 131820Z 17007KT 33/11 A2987 RMK A01 T03280109  RH  026%=      5-min Rain = 0
KWT1 131821Z 18008KT 33/11 A2987 RMK A01 T03300111  RH  026%=      5-min Rain = 0
KWT1 131822Z 19006KT 33/11 A2987 RMK A01 T03310110  RH  026%=      5-min Rain = 0
KWT1 131823Z 15007KT 33/11 A2987 RMK A01 T03320111  RH  026%=      5-min Rain = 0
KWT1 131824Z 15005KT 33/11 A2987 RMK A01 T03340113  RH  026%=      5-min Rain = 0
KWT1 131825Z 18009KT 34/11 A2987 RMK A01 T03380112  RH  025%=      5-min Rain = 0
KWT1 131826Z 17009KT 34/11 A2987 RMK A01 T03360109  RH  025%=      5-min Rain = 0
KWT1 131827Z 18008KT 33/11 A2987 RMK A01 T03320110  RH  026%=      5-min Rain = 0
KWT1 131828Z 18008KT 33/11 A2987 RMK A01 T03320108  RH  025%=      5-min Rain = 0
KWT1 131829Z 16008KT 33/11 A2987 RMK A01 T03310110  RH  026%=      5-min Rain = 0
KWT1 131830Z 16008KT 33/11 A2987 RMK A01 T03320110  RH  026%=      5-min Rain = 0
KWT1 131831Z 19005KT 33/11 A2987 RMK A01 T03330110  RH  026%=      5-min Rain = 0
KWT1 131832Z 18008KT 33/11 A2987 RMK A01 T03330109  RH  026%=      5-min Rain = 0
KWT1 131833Z 17007KT 33/11 A2987 RMK A01 T03320109  RH  026%=      5-min Rain = 0
KWT1 131834Z 17006KT 33/11 A2986 RMK A01 T03320110  RH  026%=      5-min Rain = 0
KWT1 131835Z 15008KT 33/11 A2986 RMK A01 T03320112  RH  026%=      5-min Rain = 0
KWT1 131836Z 13010KT 33/11 A2986 RMK A01 T03340113  RH  026%=      5-min Rain = 0
KWT1 131837Z 13009KT 34/11 A2986 RMK A01 T03360112  RH  026%=      5-min Rain = 0
KWT1 131838Z 13008KT 34/11 A2986 RMK A01 T03370113  RH  026%=      5-min Rain = 0
KWT1 131839Z 14006KT 34/11 A2986 RMK A01 T03380113  RH  025%=      5-min Rain = 0
KWT1 131840Z 16006KT 34/11 A2986 RMK A01 T03400114  RH  025%=      5-min Rain = 0
KWT1 131841Z 16005KT 34/11 A2986 RMK A01 T03410112  RH  025%=      5-min Rain = 0
KWT1 131842Z 16009KT 34/11 A2986 RMK A01 T03410113  RH  025%=      5-min Rain = 0
KWT1 131843Z 16009KT 34/11 A2986 RMK A01 T03410113  RH  025%=      5-min Rain = 0
KWT1 131844Z 15009KT 34/11 A2986 RMK A01 T03420113  RH  025%=      5-min Rain = 0
KWT1 131845Z 14005KT 34/11 A2986 RMK A01 T03400110  RH  025%=      5-min Rain = 0
KWT1 131846Z 14008KT 34/11 A2986 RMK A01 T03380112  RH  025%=      5-min Rain = 0
KWT1 131847Z 16004KT 34/11 A2986 RMK A01 T03370112  RH  025%=      5-min Rain = 0
KWT1 131848Z 15008KT 34/11 A2986 RMK A01 T03380114  RH  026%=      5-min Rain = 0
KWT1 131849Z 16008KT 34/11 A2986 RMK A01 T03410112  RH  025%=      5-min Rain = 0
KWT1 131850Z 15008KT 34/11 A2986 RMK A01 T03430114  RH  025%=      5-min Rain = 0
KWT1 131851Z 16008KT 34/11 A2986 RMK A01 T03440112  RH  024%=      5-min Rain = 0
KWT1 131852Z 16008KT 34/11 A2986 RMK A01 T03430111  RH  024%=      5-min Rain = 0
KWT1 131853Z 17007KT 34/11 A2986 RMK A01 T03410109  RH  024%=      5-min Rain = 0
KWT1 131854Z 19007KT 34/11 A2986 RMK A01 T03390110  RH  025%=      5-min Rain = 0
KWT1 131855Z 21004KT 34/11 A2986 RMK A01 T03390107  RH  024%=      5-min Rain = 0
KWT1 131856Z 20005KT 34/11 A2985 RMK A01 T03390109  RH  025%=      5-min Rain = 0
KWT1 131857Z 16008KT 34/11 A2985 RMK A01 T03400111  RH  025%=      5-min Rain = 0
KWT1 131858Z 16007KT 34/11 A2985 RMK A01 T03430112  RH  025%=      5-min Rain = 0
KWT1 131859Z 15008KT 34/11 A2985 RMK A01 T03440110  RH  024%=      5-min Rain = 0
KWT1 131900Z 17009KT 35/11 A2985 RMK A01 T03450110  RH  024%=      5-min Rain = 0
KWT1 131901Z 15007KT 34/11 A2985 RMK A01 T03430109  RH  024%=      5-min Rain = 0
KWT1 131902Z 17004KT 34/11 A2985 RMK A01 T03420109  RH  024%=      5-min Rain = 0
KWT1 131903Z 13003KT 34/11 A2985 RMK A01 T03420109  RH  024%=      5-min Rain = 0
KWT1 131904Z 14004KT 34/11 A2985 RMK A01 T03410108  RH  024%=      5-min Rain = 0
KWT1 131905Z 12004KT 34/11 A2985 RMK A01 T03400109  RH  024%=      5-min Rain = 0
KWT1 131906Z 11007KT 34/11 A2985 RMK A01 T03430110  RH  024%=      5-min Rain = 0
KWT1 131907Z 13006KT 34/11 A2985 RMK A01 T03440111  RH  024%=      5-min Rain = 0
KWT1 131908Z 16008KT 35/11 A2985 RMK A01 T03460111  RH  024%=      5-min Rain = 0
KWT1 131909Z 17006KT 35/11 A2985 RMK A01 T03460109  RH  024%=      5-min Rain = 0
KWT1 131910Z 18005KT 35/11 A2985 RMK A01 T03450108  RH  024%=      5-min Rain = 0
KWT1 131911Z 16004KT 34/11 A2985 RMK A01 T03430107  RH  024%=      5-min Rain = 0
KWT1 131912Z 16009KT 34/11 A2985 RMK A01 T03440110  RH  024%=      5-min Rain = 0
KWT1 131913Z 17010KT 35/11 A2984 RMK A01 T03460109  RH  024%=      5-min Rain = 0
KWT1 131914Z 17007KT 34/11 A2985 RMK A01 T03420107  RH  024%=      5-min Rain = 0
KWT1 131915Z 18005KT 34/11 A2985 RMK A01 T03410108  RH  024%=      5-min Rain = 0
KWT1 131916Z 18005KT 34/11 A2984 RMK A01 T03410107  RH  024%=      5-min Rain = 0
KWT1 131917Z 15007KT 34/11 A2984 RMK A01 T03400107  RH  024%=      5-min Rain = 0
KWT1 131918Z 15010KT 34/11 A2984 RMK A01 T03430108  RH  024%=      5-min Rain = 0
KWT1 131919Z 17006KT 35/11 A2984 RMK A01 T03450107  RH  024%=      5-min Rain = 0
KWT1 131920Z 17004KT 35/11 A2984 RMK A01 T03450106  RH  023%=      5-min Rain = 0
KWT1 131921Z 17005KT 34/11 A2984 RMK A01 T03440106  RH  023%=      5-min Rain = 0
KWT1 131922Z 18004KT 34/10 A2984 RMK A01 T03440104  RH  023%=      5-min Rain = 0
KWT1 131923Z 19004KT 34/10 A2984 RMK A01 T03420103  RH  023%=      5-min Rain = 0
KWT1 131924Z 19002KT 34/10 A2984 RMK A01 T03420103  RH  023%=      5-min Rain = 0
KWT1 131925Z 17003KT 34/10 A2984 RMK A01 T03430104  RH  023%=      5-min Rain = 0
KWT1 131926Z 13005KT 35/11 A2984 RMK A01 T03470108  RH  023%=      5-min Rain = 0
KWT1 131927Z 12006KT 35/11 A2984 RMK A01 T03490106  RH  023%=      5-min Rain = 0
KWT1 131928Z 11006KT 35/11 A2984 RMK A01 T03490105  RH  023%=      5-min Rain = 0
KWT1 131929Z 11005KT 35/10 A2984 RMK A01 T03470104  RH  023%=      5-min Rain = 0
KWT1 131930Z 10004KT 35/10 A2984 RMK A01 T03460103  RH  023%=      5-min Rain = 0
KWT1 131931Z 13006KT 35/11 A2984 RMK A01 T03460105  RH  023%=      5-min Rain = 0
KWT1 131932Z 11005KT 35/10 A2984 RMK A01 T03470104  RH  023%=      5-min Rain = 0
KWT1 131933Z 11007KT 35/11 A2984 RMK A01 T03480105  RH  023%=      5-min Rain = 0
KWT1 131934Z 12005KT 35/10 A2984 RMK A01 T03480104  RH  023%=      5-min Rain = 0
KWT1 131935Z 03001KT 35/10 A2984 RMK A01 T03460102  RH  023%=      5-min Rain = 0
KWT1 131936Z 15003G10KT 34/10 A2984 RMK A01 T03440104  RH  023%=      5-min Rain = 0
KWT1 131937Z 14009KT 35/11 A2984 RMK A01 T03460105  RH  023%=      5-min Rain = 0
KWT1 131938Z 16009KT 35/11 A2983 RMK A01 T03480105  RH  023%=      5-min Rain = 0
KWT1 131939Z 16006KT 35/10 A2983 RMK A01 T03460104  RH  023%=      5-min Rain = 0
KWT1 131940Z 20006KT 35/10 A2983 RMK A01 T03460104  RH  023%=      5-min Rain = 0
KWT1 131941Z 20004KT 34/10 A2983 RMK A01 T03440102  RH  023%=      5-min Rain = 0
KWT1 131942Z 19005KT 34/11 A2983 RMK A01 T03440105  RH  023%=      5-min Rain = 0
KWT1 131943Z 17005KT 35/11 A2983 RMK A01 T03480107  RH  023%=      5-min Rain = 0
KWT1 131944Z 17008KT 35/11 A2983 RMK A01 T03510105  RH  022%=      5-min Rain = 0
KWT1 131945Z 14008KT 35/10 A2983 RMK A01 T03500104  RH  022%=      5-min Rain = 0
KWT1 131946Z 13005KT 35/10 A2983 RMK A01 T03500104  RH  022%=      5-min Rain = 0
KWT1 131947Z 13003KT 35/10 A2983 RMK A01 T03490104  RH  023%=      5-min Rain = 0
KWT1 131948Z 14005KT 35/11 A2983 RMK A01 T03490106  RH  023%=      5-min Rain = 0
KWT1 131949Z 13005KT 35/11 A2983 RMK A01 T03500106  RH  023%=      5-min Rain = 0
KWT1 131950Z 15007KT 35/11 A2983 RMK A01 T03510108  RH  023%=      5-min Rain = 0
KWT1 131951Z 16006KT 35/11 A2983 RMK A01 T03530108  RH  023%=      5-min Rain = 0
KWT1 131952Z 17007KT 35/10 A2983 RMK A01 T03530104  RH  022%=      5-min Rain = 0
KWT1 131953Z 16006KT 35/10 A2983 RMK A01 T03500103  RH  022%=      5-min Rain = 0
KWT1 131954Z 15003KT 35/11 A2982 RMK A01 T03470105  RH  023%=      5-min Rain = 0
KWT1 131955Z 11006KT 35/11 A2982 RMK A01 T03500108  RH  023%=      5-min Rain = 0
KWT1 131956Z 12011KT 36/11 A2982 RMK A01 T03550107  RH  022%=      5-min Rain = 0
KWT1 131957Z 11006KT 36/11 A2982 RMK A01 T03560105  RH  022%=      5-min Rain = 0
KWT1 131958Z 13006KT 35/10 A2982 RMK A01 T03530103  RH  022%=      5-min Rain = 0
KWT1 131959Z 13005KT 35/10 A2982 RMK A01 T03500103  RH  022%=      5-min Rain = 0
KWT1 132000Z 14005KT 35/11 A2982 RMK A01 T03510108  RH  023%=      5-min Rain = 0
KWT1 132001Z 16009KT 36/11 A2982 RMK A01 T03560108  RH  022%=      5-min Rain = 0
KWT1 132002Z 18007KT 36/11 A2982 RMK A01 T03570107  RH  022%=      5-min Rain = 0
KWT1 132003Z 18006KT 35/10 A2982 RMK A01 T03530103  RH  022%=      5-min Rain = 0
KWT1 132004Z 13008KT 35/11 A2982 RMK A01 T03510107  RH  023%=      5-min Rain = 0
KWT1 132005Z 10008KT 35/11 A2982 RMK A01 T03530106  RH  022%=      5-min Rain = 0
KWT1 132006Z 10006KT 35/11 A2982 RMK A01 T03540106  RH  022%=      5-min Rain = 0
KWT1 132007Z 12005KT 36/11 A2982 RMK A01 T03550107  RH  022%=      5-min Rain = 0
KWT1 132008Z 17005KT 36/10 A2982 RMK A01 T03560104  RH  022%=      5-min Rain = 0
KWT1 132009Z 17010KT 36/11 A2982 RMK A01 T03550105  RH  022%=      5-min Rain = 0
KWT1 132010Z 15008KT 35/10 A2982 RMK A01 T03510103  RH  022%=      5-min Rain = 0
KWT1 132011Z 14007KT 35/11 A2982 RMK A01 T03510106  RH  023%=      5-min Rain = 0
KWT1 132012Z 14004KT 35/11 A2982 RMK A01 T03530107  RH  022%=      5-min Rain = 0
KWT1 132013Z 14003KT 36/11 A2982 RMK A01 T03560109  RH  022%=      5-min Rain = 0
KWT1 132014Z 13004KT 36/11 A2982 RMK A01 T03570107  RH  022%=      5-min Rain = 0
KWT1 132015Z 13005KT 36/11 A2982 RMK A01 T03560109  RH  022%=      5-min Rain = 0
KWT1 132016Z 10004KT 36/11 A2982 RMK A01 T03580110  RH  022%=      5-min Rain = 0
KWT1 132017Z 12004KT 36/11 A2982 RMK A01 T03590109  RH  022%=      5-min Rain = 0
KWT1 132018Z 18007KT 36/11 A2982 RMK A01 T03590111  RH  022%=      5-min Rain = 0
KWT1 132019Z 16006KT 36/11 A2982 RMK A01 T03600107  RH  022%=      5-min Rain = 0
KWT1 132020Z 14005KT 36/11 A2982 RMK A01 T03570105  RH  022%=      5-min Rain = 0
KWT1 132021Z 14005KT 36/11 A2981 RMK A01 T03580106  RH  022%=      5-min Rain = 0
KWT1 132022Z 18009KT 36/11 A2981 RMK A01 T03590106  RH  022%=      5-min Rain = 0
KWT1 132023Z 16008KT 36/10 A2981 RMK A01 T03610104  RH  021%=      5-min Rain = 0
KWT1 132024Z 18007KT 36/10 A2982 RMK A01 T03610103  RH  021%=      5-min Rain = 0
KWT1 132025Z 18008KT 36/10 A2981 RMK A01 T03570099  RH  021%=      5-min Rain = 0
KWT1 132026Z 15006KT 35/10 A2981 RMK A01 T03520099  RH  021%=      5-min Rain = 0
KWT1 132027Z 13004KT 35/10 A2982 RMK A01 T03520100  RH  022%=      5-min Rain = 0
KWT1 132028Z 16003KT 35/10 A2981 RMK A01 T03520101  RH  022%=      5-min Rain = 0
KWT1 132029Z 15005KT 35/10 A2981 RMK A01 T03540102  RH  022%=      5-min Rain = 0
KWT1 132030Z 16010KT 36/11 A2981 RMK A01 T03570106  RH  022%=      5-min Rain = 0
KWT1 132031Z 16010KT 36/11 A2981 RMK A01 T03590106  RH  021%=      5-min Rain = 0
KWT1 132032Z 16006KT 36/10 A2981 RMK A01 T03590102  RH  021%=      5-min Rain = 0
KWT1 132033Z 19005KT 36/10 A2981 RMK A01 T03550102  RH  021%=      5-min Rain = 0
KWT1 132034Z 17007KT 35/10 A2981 RMK A01 T03540102  RH  022%=      5-min Rain = 0
KWT1 132035Z 15009KT 35/10 A2981 RMK A01 T03540103  RH  022%=      5-min Rain = 0
KWT1 132036Z 15006KT 36/10 A2981 RMK A01 T03570100  RH  021%=      5-min Rain = 0
KWT1 132037Z 14004KT 36/10 A2981 RMK A01 T03580099  RH  021%=      5-min Rain = 0
KWT1 132038Z 13002KT 36/10 A2981 RMK A01 T03580100  RH  021%=      5-min Rain = 0
KWT1 132039Z 09002KT 36/10 A2981 RMK A01 T03580099  RH  021%=      5-min Rain = 0
KWT1 132040Z 08002KT 36/10 A2981 RMK A01 T03580100  RH  021%=      5-min Rain = 0
KWT1 132041Z 09003KT 36/10 A2981 RMK A01 T03570097  RH  020%=      5-min Rain = 0
KWT1 132042Z 15007G12KT 36/10 A2981 RMK A01 T03560102  RH  021%=      5-min Rain = 0
KWT1 132043Z 13008KT 36/10 A2981 RMK A01 T03570104  RH  022%=      5-min Rain = 0
KWT1 132044Z 15009KT 36/10 A2981 RMK A01 T03570103  RH  021%=      5-min Rain = 0
KWT1 132045Z 15009KT 36/10 A2981 RMK A01 T03580101  RH  021%=      5-min Rain = 0
KWT1 132046Z 14010KT 36/10 A2981 RMK A01 T03590102  RH  021%=      5-min Rain = 0
KWT1 132047Z 13010KT 36/10 A2981 RMK A01 T03580103  RH  021%=      5-min Rain = 0
KWT1 132048Z 13010KT 36/10 A2981 RMK A01 T03570104  RH  021%=      5-min Rain = 0
KWT1 132049Z 11005KT 36/10 A2981 RMK A01 T03570102  RH  021%=      5-min Rain = 0
KWT1 132050Z 09003KT 36/10 A2981 RMK A01 T03560101  RH  021%=      5-min Rain = 0
KWT1 132051Z 10004KT 36/10 A2981 RMK A01 T03560101  RH  021%=      5-min Rain = 0
KWT1 132052Z 16009KT 36/10 A2981 RMK A01 T03560104  RH  022%=      5-min Rain = 0
KWT1 132053Z 14009KT 36/10 A2981 RMK A01 T03560104  RH  022%=      5-min Rain = 0
KWT1 132054Z 16006KT 36/11 A2981 RMK A01 T03560105  RH  022%=      5-min Rain = 0
KWT1 132055Z 16006KT 36/10 A2981 RMK A01 T03580103  RH  021%=      5-min Rain = 0
KWT1 132056Z 19008KT 36/10 A298 RMK A01 T03560102  RH  021%=      5-min Rain = 0
KWT1 132057Z 18008KT 36/10 A298 RMK A01 T03550103  RH  022%=      5-min Rain = 0
KWT1 132058Z 18007KT 36/10 A298 RMK A01 T03560104  RH  022%=      5-min Rain = 0
KWT1 132059Z 21005KT 36/10 A298 RMK A01 T03560104  RH  022%=      5-min Rain = 0
KWT1 132100Z 17007KT 36/11 A298 RMK A01 T03560105  RH  022%=      5-min Rain = 0
KWT1 132101Z 14009KT 36/11 A298 RMK A01 T03580107  RH  022%=      5-min Rain = 0
KWT1 132102Z 14010KT 36/11 A298 RMK A01 T03630108  RH  022%=      5-min Rain = 0
KWT1 132103Z 14011KT 36/11 A298 RMK A01 T03640107  RH  021%=      5-min Rain = 0
KWT1 132104Z 15010KT 36/10 A298 RMK A01 T03640103  RH  021%=      5-min Rain = 0
KWT1 132105Z 15006KT 36/10 A298 RMK A01 T03610101  RH  021%=      5-min Rain = 0
KWT1 132106Z 16008KT 36/10 A298 RMK A01 T03590102  RH  021%=      5-min Rain = 0
KWT1 132107Z 16008KT 36/10 A298 RMK A01 T03590101  RH  021%=      5-min Rain = 0
KWT1 132108Z 16006KT 36/10 A298 RMK A01 T03590100  RH  021%=      5-min Rain = 0
KWT1 132109Z 17006KT 36/10 A298 RMK A01 T03580101  RH  021%=      5-min Rain = 0
KWT1 132110Z 16005KT 36/10 A298 RMK A01 T03590101  RH  021%=      5-min Rain = 0
KWT1 132111Z 16003KT 36/10 A298 RMK A01 T03590100  RH  021%=      5-min Rain = 0
KWT1 132112Z 17004KT 36/10 A298 RMK A01 T03580099  RH  021%=      5-min Rain = 0
KWT1 132113Z 16009KT 36/10 A298 RMK A01 T03590102  RH  021%=      5-min Rain = 0
KWT1 132114Z 17008KT 36/10 A298 RMK A01 T03600101  RH  021%=      5-min Rain = 0
KWT1 132115Z 17006KT 36/10 A298 RMK A01 T03600100  RH  021%=      5-min Rain = 0
KWT1 132116Z 16006KT 36/10 A298 RMK A01 T03590099  RH  021%=      5-min Rain = 0
KWT1 132117Z 13005KT 36/10 A298 RMK A01 T03590098  RH  021%=      5-min Rain = 0
KWT1 132118Z 13004KT 36/10 A298 RMK A01 T03570098  RH  021%=      5-min Rain = 0
KWT1 132119Z 14005KT 36/10 A298 RMK A01 T03580100  RH  021%=      5-min Rain = 0
KWT1 132120Z 13005KT 36/10 A298 RMK A01 T03590098  RH  021%=      5-min Rain = 0
KWT1 132121Z 12004KT 36/10 A298 RMK A01 T03580096  RH  020%=      5-min Rain = 0
KWT1 132122Z 14009KT 36/10 A298 RMK A01 T03580099  RH  021%=      5-min Rain = 0
KWT1 132123Z 13010KT 36/10 A298 RMK A01 T03600098  RH  020%=      5-min Rain = 0
KWT1 132124Z 12007KT 36/10 A298 RMK A01 T03610099  RH  020%=      5-min Rain = 0
KWT1 132125Z 14008KT 36/10 A298 RMK A01 T03620099  RH  020%=      5-min Rain = 0
KWT1 132126Z 13007KT 36/10 A298 RMK A01 T03610100  RH  021%=      5-min Rain = 0
KWT1 132127Z 12008KT 36/10 A298 RMK A01 T03600100  RH  021%=      5-min Rain = 0
KWT1 132128Z 15011KT 36/10 A298 RMK A01 T03590101  RH  021%=      5-min Rain = 0
KWT1 132129Z 15011KT 36/10 A298 RMK A01 T03600099  RH  021%=      5-min Rain = 0
KWT1 132130Z 13011KT 36/10 A298 RMK A01 T03600101  RH  021%=      5-min Rain = 0
KWT1 132131Z 13008KT 36/10 A298 RMK A01 T03600101  RH  021%=      5-min Rain = 0
KWT1 132132Z 13009KT 36/10 A298 RMK A01 T03590101  RH  021%=      5-min Rain = 0
KWT1 132133Z 12008KT 36/10 A298 RMK A01 T03590101  RH  021%=      5-min Rain = 0
KWT1 132134Z 13007KT 36/10 A298 RMK A01 T03590102  RH  021%=      5-min Rain = 0
KWT1 132135Z 13005KT 36/10 A298 RMK A01 T03590099  RH  021%=      5-min Rain = 0
KWT1 132136Z 12004KT 36/10 A2979 RMK A01 T03580098  RH  021%=      5-min Rain = 0
KWT1 132137Z 07002KT 36/10 A2979 RMK A01 T03570097  RH  021%=      5-min Rain = 0
KWT1 132138Z 12001KT 36/10 A2979 RMK A01 T03560097  RH  021%=      5-min Rain = 0
KWT1 132139Z 13005KT 36/10 A2979 RMK A01 T03560098  RH  021%=      5-min Rain = 0
KWT1 132140Z 15008KT 36/10 A2979 RMK A01 T03570100  RH  021%=      5-min Rain = 0
KWT1 132141Z 15009KT 36/10 A2979 RMK A01 T03610099  RH  020%=      5-min Rain = 0
KWT1 132142Z 15008KT 36/10 A2979 RMK A01 T03620097  RH  020%=      5-min Rain = 0
KWT1 132143Z 13006KT 36/10 A2979 RMK A01 T03600096  RH  020%=      5-min Rain = 0
KWT1 132144Z 14006KT 36/10 A2979 RMK A01 T03600097  RH  020%=      5-min Rain = 0
KWT1 132145Z 15007KT 36/10 A2979 RMK A01 T03600096  RH  020%=      5-min Rain = 0
KWT1 132146Z 14005KT 36/10 A2979 RMK A01 T03600097  RH  020%=      5-min Rain = 0
KWT1 132147Z 15005KT 36/10 A2979 RMK A01 T03610097  RH  020%=      5-min Rain = 0
KWT1 132148Z 11002KT 36/10 A2979 RMK A01 T03620095  RH  020%=      5-min Rain = 0
KWT1 132149Z 17003KT 36/10 A2979 RMK A01 T03620096  RH  020%=      5-min Rain = 0
KWT1 132150Z 16009KT 36/10 A2979 RMK A01 T03610099  RH  020%=      5-min Rain = 0
KWT1 132151Z 17008KT 36/10 A2979 RMK A01 T03610098  RH  020%=      5-min Rain = 0
KWT1 132152Z 19008KT 36/10 A2979 RMK A01 T03600099  RH  020%=      5-min Rain = 0
KWT1 132153Z 18007KT 36/10 A2979 RMK A01 T03590098  RH  020%=      5-min Rain = 0
KWT1 132154Z 16006KT 36/10 A2979 RMK A01 T03580098  RH  021%=      5-min Rain = 0
KWT1 132155Z 14007KT 36/10 A2979 RMK A01 T03610102  RH  021%=      5-min Rain = 0
KWT1 132156Z 17009KT 37/10 A2979 RMK A01 T03650102  RH  020%=      5-min Rain = 0
KWT1 132157Z 15007KT 37/10 A2979 RMK A01 T03650100  RH  020%=      5-min Rain = 0
KWT1 132158Z 14006KT 36/10 A2979 RMK A01 T03630099  RH  020%=      5-min Rain = 0
KWT1 132159Z 14006KT 36/10 A2979 RMK A01 T03630099  RH  020%=      5-min Rain = 0
KWT1 132200Z 14008KT 36/10 A2979 RMK A01 T03620099  RH  020%=      5-min Rain = 0
KWT1 132201Z 13008KT 36/10 A2979 RMK A01 T03620100  RH  021%=      5-min Rain = 0
KWT1 132202Z 12009KT 36/10 A2979 RMK A01 T03620100  RH  020%=      5-min Rain = 0
KWT1 132203Z 11008KT 36/10 A2979 RMK A01 T03620100  RH  020%=      5-min Rain = 0
KWT1 132204Z 10006KT 36/10 A2979 RMK A01 T03610099  RH  020%=      5-min Rain = 0
KWT1 132205Z 11007KT 36/10 A2979 RMK A01 T03610099  RH  020%=      5-min Rain = 0
KWT1 132206Z 10006KT 36/10 A2979 RMK A01 T03620099  RH  020%=      5-min Rain = 0
KWT1 132207Z 10008KT 36/10 A2979 RMK A01 T03620100  RH  020%=      5-min Rain = 0
KWT1 132208Z 10008KT 36/10 A2979 RMK A01 T03620098  RH  020%=      5-min Rain = 0
KWT1 132209Z 10008KT 36/10 A2979 RMK A01 T03600098  RH  020%=      5-min Rain = 0
KWT1 132210Z 11007KT 36/10 A2979 RMK A01 T03600099  RH  021%=      5-min Rain = 0
KWT1 132211Z 11005KT 36/10 A2979 RMK A01 T03590098  RH  020%=      5-min Rain = 0
KWT1 132212Z 12005KT 36/10 A2979 RMK A01 T03590100  RH  021%=      5-min Rain = 0
KWT1 132213Z 12007KT 36/10 A2979 RMK A01 T03600098  RH  020%=      5-min Rain = 0
KWT1 132214Z 12009KT 36/10 A2979 RMK A01 T03600099  RH  020%=      5-min Rain = 0
KWT1 132215Z 13009KT 36/10 A2979 RMK A01 T03590098  RH  021%=      5-min Rain = 0
KWT1 132216Z 16009KT 36/10 A2979 RMK A01 T03600100  RH  021%=      5-min Rain = 0
KWT1 132217Z 17012KT 36/10 A2979 RMK A01 T03620099  RH  020%=      5-min Rain = 0
KWT1 132218Z 17009KT 36/10 A2979 RMK A01 T03600096  RH  020%=      5-min Rain = 0
KWT1 132219Z 16007KT 36/10 A2979 RMK A01 T03580096  RH  020%=      5-min Rain = 0
KWT1 132220Z 16004KT 36/10 A2979 RMK A01 T03570098  RH  021%=      5-min Rain = 0
KWT1 132221Z 16009KT 36/10 A2979 RMK A01 T03590099  RH  021%=      5-min Rain = 0
KWT1 132222Z 13007KT 36/10 A2979 RMK A01 T03590099  RH  021%=      5-min Rain = 0
KWT1 132223Z 12007KT 36/10 A2979 RMK A01 T03590100  RH  021%=      5-min Rain = 0
KWT1 132224Z 12005KT 36/10 A2979 RMK A01 T03600098  RH  020%=      5-min Rain = 0
KWT1 132225Z 11004KT 36/10 A2978 RMK A01 T03600098  RH  020%=      5-min Rain = 0
KWT1 132226Z 16004KT 36/10 A2978 RMK A01 T03600099  RH  021%=      5-min Rain = 0
KWT1 132227Z 14004KT 36/10 A2978 RMK A01 T03600100  RH  021%=      5-min Rain = 0
KWT1 132228Z 12004KT 36/10 A2978 RMK A01 T03610100  RH  020%=      5-min Rain = 0
KWT1 132229Z 10004KT 36/10 A2978 RMK A01 T03620101  RH  021%=      5-min Rain = 0
KWT1 132230Z 12004KT 36/10 A2978 RMK A01 T03630101  RH  020%=      5-min Rain = 0
KWT1 132231Z 14004KT 36/10 A2978 RMK A01 T03640101  RH  020%=      5-min Rain = 0
KWT1 132232Z 13004KT 36/10 A2978 RMK A01 T03630102  RH  021%=      5-min Rain = 0
KWT1 132233Z 14007G14KT 36/10 A2978 RMK A01 T03630104  RH  021%=      5-min Rain = 0
KWT1 132234Z 13010KT 36/10 A2978 RMK A01 T03630104  RH  021%=      5-min Rain = 0
KWT1 132235Z 15009KT 36/10 A2978 RMK A01 T03630104  RH  021%=      5-min Rain = 0
KWT1 132236Z 15008KT 36/10 A2978 RMK A01 T03620102  RH  021%=      5-min Rain = 0
KWT1 132237Z 15009KT 36/10 A2978 RMK A01 T03600103  RH  021%=      5-min Rain = 0
KWT1 132238Z 15008KT 36/10 A2978 RMK A01 T03590101  RH  021%=      5-min Rain = 0
KWT1 132239Z 16006KT 36/10 A2978 RMK A01 T03570101  RH  021%=      5-min Rain = 0
KWT1 132240Z 16006KT 36/10 A2978 RMK A01 T03560101  RH  021%=      5-min Rain = 0
KWT1 132241Z 15005KT 36/10 A2978 RMK A01 T03570102  RH  021%=      5-min Rain = 0
KWT1 132242Z 13007KT 36/11 A2978 RMK A01 T03590105  RH  021%=      5-min Rain = 0
KWT1 132243Z 13008KT 36/10 A2978 RMK A01 T03610103  RH  021%=      5-min Rain = 0
KWT1 132244Z 14007KT 36/10 A2978 RMK A01 T03610102  RH  021%=      5-min Rain = 0
KWT1 132245Z 14006KT 36/10 A2978 RMK A01 T03600102  RH  021%=      5-min Rain = 0
KWT1 132246Z 12006KT 36/10 A2978 RMK A01 T03600102  RH  021%=      5-min Rain = 0
KWT1 132247Z 15009KT 36/10 A2978 RMK A01 T03610102  RH  021%=      5-min Rain = 0
KWT1 132248Z 13007KT 36/10 A2978 RMK A01 T03600100  RH  021%=      5-min Rain = 0
KWT1 132249Z 13007KT 36/10 A2978 RMK A01 T03580100  RH  021%=      5-min Rain = 0
KWT1 132250Z 14009KT 36/10 A2978 RMK A01 T03570100  RH  021%=      5-min Rain = 0
KWT1 132251Z 13005KT 36/10 A2978 RMK A01 T03570100  RH  021%=      5-min Rain = 0
KWT1 132252Z 13005KT 36/10 A2978 RMK A01 T03570101  RH  021%=      5-min Rain = 0
KWT1 132253Z 15008KT 36/10 A2978 RMK A01 T03570101  RH  021%=      5-min Rain = 0
KWT1 132254Z 15010KT 36/10 A2978 RMK A01 T03580099  RH  021%=      5-min Rain = 0
KWT1 132255Z 15008KT 36/10 A2978 RMK A01 T03590099  RH  021%=      5-min Rain = 0
KWT1 132256Z 14007KT 36/10 A2978 RMK A01 T03590099  RH  021%=      5-min Rain = 0
KWT1 132257Z 13006KT 36/10 A2978 RMK A01 T03580099  RH  021%=      5-min Rain = 0
KWT1 132258Z 13006KT 36/10 A2978 RMK A01 T03570099  RH  021%=      5-min Rain = 0
KWT1 132259Z 12008KT 36/10 A2978 RMK A01 T03580102  RH  021%=      5-min Rain = 0
KWT1 132300Z 12010KT 36/10 A2978 RMK A01 T03580101  RH  021%=      5-min Rain = 0
KWT1 132301Z 12009KT 36/10 A2978 RMK A01 T03580101  RH  021%=      5-min Rain = 0
KWT1 132302Z 11008KT 36/10 A2978 RMK A01 T03570099  RH  021%=      5-min Rain = 0
KWT1 132303Z 12008KT 36/10 A2978 RMK A01 T03560100  RH  021%=      5-min Rain = 0
KWT1 132304Z 13006KT 36/10 A2978 RMK A01 T03560101  RH  021%=      5-min Rain = 0
KWT1 132305Z 14006KT 36/10 A2978 RMK A01 T03560104  RH  022%=      5-min Rain = 0
KWT1 132306Z 14006KT 36/10 A2978 RMK A01 T03580102  RH  021%=      5-min Rain = 0
KWT1 132307Z 12006KT 36/10 A2978 RMK A01 T03580102  RH  021%=      5-min Rain = 0
KWT1 132308Z 13006KT 36/10 A2978 RMK A01 T03570103  RH  021%=      5-min Rain = 0
KWT1 132309Z 12007KT 36/10 A2978 RMK A01 T03570103  RH  021%=      5-min Rain = 0
KWT1 132310Z 11007KT 36/10 A2978 RMK A01 T03580100  RH  021%=      5-min Rain = 0
KWT1 132311Z 12004KT 36/10 A2978 RMK A01 T03570099  RH  021%=      5-min Rain = 0
KWT1 132312Z 10003KT 36/10 A2978 RMK A01 T03570100  RH  021%=      5-min Rain = 0
KWT1 132313Z 11005KT 36/10 A2978 RMK A01 T03570100  RH  021%=      5-min Rain = 0
KWT1 132314Z 12008KT 36/10 A2978 RMK A01 T03560101  RH  021%=      5-min Rain = 0
KWT1 132315Z 12007KT 36/10 A2978 RMK A01 T03550102  RH  021%=      5-min Rain = 0
KWT1 132316Z 13007KT 36/10 A2978 RMK A01 T03550101  RH  021%=      5-min Rain = 0
KWT1 132317Z 14008KT 36/10 A2978 RMK A01 T03550102  RH  021%=      5-min Rain = 0
KWT1 132318Z 12006KT 36/10 A2978 RMK A01 T03550102  RH  022%=      5-min Rain = 0
KWT1 132319Z 10006KT 36/10 A2978 RMK A01 T03550099  RH  021%=      5-min Rain = 0
KWT1 132320Z 10005KT 36/10 A2978 RMK A01 T03560101  RH  021%=      5-min Rain = 0
KWT1 132321Z 11006KT 36/10 A2978 RMK A01 T03570102  RH  021%=      5-min Rain = 0
KWT1 132322Z 13010KT 36/10 A2978 RMK A01 T03570103  RH  021%=      5-min Rain = 0
KWT1 132323Z 13009KT 36/10 A2978 RMK A01 T03560104  RH  022%=      5-min Rain = 0
KWT1 132324Z 12009KT 36/10 A2978 RMK A01 T03550104  RH  022%=      5-min Rain = 0
KWT1 132325Z 12008KT 35/10 A2978 RMK A01 T03540104  RH  022%=      5-min Rain = 0
KWT1 132326Z 13007KT 35/10 A2978 RMK A01 T03540104  RH  022%=      5-min Rain = 0
KWT1 132327Z 13007KT 35/10 A2978 RMK A01 T03530104  RH  022%=      5-min Rain = 0
KWT1 132328Z 13006KT 35/10 A2978 RMK A01 T03530102  RH  022%=      5-min Rain = 0
KWT1 132329Z 11005KT 35/10 A2978 RMK A01 T03530103  RH  022%=      5-min Rain = 0
KWT1 132330Z 12006KT 35/10 A2978 RMK A01 T03530103  RH  022%=      5-min Rain = 0
KWT1 132331Z 13006KT 35/10 A2978 RMK A01 T03530102  RH  022%=      5-min Rain = 0
KWT1 132332Z 13006KT 35/10 A2978 RMK A01 T03530102  RH  022%=      5-min Rain = 0
KWT1 132333Z 09005KT 35/10 A2978 RMK A01 T03530103  RH  022%=      5-min Rain = 0
KWT1 132334Z 12005KT 35/10 A2978 RMK A01 T03530103  RH  022%=      5-min Rain = 0
KWT1 132335Z 11006KT 35/10 A2978 RMK A01 T03530104  RH  022%=      5-min Rain = 0
KWT1 132336Z 12006KT 35/11 A2978 RMK A01 T03540105  RH  022%=      5-min Rain = 0
KWT1 132337Z 14008KT 35/10 A2978 RMK A01 T03540104  RH  022%=      5-min Rain = 0
KWT1 132338Z 12007KT 35/11 A2978 RMK A01 T03540105  RH  022%=      5-min Rain = 0
KWT1 132339Z 11007KT 35/11 A2978 RMK A01 T03540105  RH  022%=      5-min Rain = 0
KWT1 132340Z 11009KT 35/10 A2978 RMK A01 T03540104  RH  022%=      5-min Rain = 0
KWT1 132341Z 12008KT 35/10 A2978 RMK A01 T03520103  RH  022%=      5-min Rain = 0
KWT1 132342Z 11008KT 35/10 A2978 RMK A01 T03510103  RH  022%=      5-min Rain = 0
KWT1 132343Z 10007KT 35/10 A2978 RMK A01 T03510104  RH  022%=      5-min Rain = 0
KWT1 132344Z 11008KT 35/10 A2978 RMK A01 T03500104  RH  022%=      5-min Rain = 0
KWT1 132345Z 09006KT 35/11 A2978 RMK A01 T03500105  RH  023%=      5-min Rain = 0
KWT1 132346Z 08008KT 35/11 A2978 RMK A01 T03500106  RH  023%=      5-min Rain = 0
KWT1 132347Z 09009KT 35/11 A2978 RMK A01 T03490107  RH  023%=      5-min Rain = 0
KWT1 132348Z 10008KT 35/11 A2978 RMK A01 T03480107  RH  023%=      5-min Rain = 0
KWT1 132349Z 12007KT 35/11 A2978 RMK A01 T03480106  RH  023%=      5-min Rain = 0
KWT1 132350Z 14008KT 35/10 A2978 RMK A01 T03490103  RH  022%=      5-min Rain = 0
KWT1 132351Z 14008KT 35/10 A2978 RMK A01 T03490100  RH  022%=      5-min Rain = 0
KWT1 132352Z 13006KT 35/10 A2978 RMK A01 T03490101  RH  022%=      5-min Rain = 0
KWT1 132353Z 13007KT 35/10 A2978 RMK A01 T03500103  RH  022%=      5-min Rain = 0
KWT1 132354Z 12007KT 35/10 A2978 RMK A01 T03490102  RH  022%=      5-min Rain = 0
KWT1 132355Z 12008KT 35/10 A2978 RMK A01 T03490103  RH  022%=      5-min Rain = 0
KWT1 132356Z 13010KT 35/10 A2978 RMK A01 T03490103  RH  022%=      5-min Rain = 0
KWT1 132357Z 12007KT 35/10 A2978 RMK A01 T03480104  RH  023%=      5-min Rain = 0
KWT1 132358Z 11008KT 35/11 A2978 RMK A01 T03480106  RH  023%=      5-min Rain = 0
KWT1 132359Z 12007KT 35/11 A2978 RMK A01 T03470105  RH  023%=      5-min Rain = 0
KWT1 140000Z 12007KT 35/11 A2978 RMK A01 T03470106  RH  023%=      5-min Rain = 0
KWT1 140001Z 13007KT 35/11 A2978 RMK A01 T03460106  RH  023%=      5-min Rain = 0
KWT1 140002Z 13007KT 35/11 A2978 RMK A01 T03460105  RH  023%=      5-min Rain = 0
KWT1 140003Z 12008KT 35/11 A2978 RMK A01 T03460105  RH  023%=      5-min Rain = 0
KWT1 140004Z 12009KT 35/11 A2978 RMK A01 T03450106  RH  023%=      5-min Rain = 0
KWT1 140005Z 12009KT 34/11 A2978 RMK A01 T03440108  RH  024%=      5-min Rain = 0
KWT1 140006Z 12010KT 34/11 A2978 RMK A01 T03430108  RH  024%=      5-min Rain = 0
KWT1 140007Z 12009KT 34/11 A2978 RMK A01 T03420108  RH  024%=      5-min Rain = 0
KWT1 140008Z 12009KT 34/11 A2978 RMK A01 T03420109  RH  024%=      5-min Rain = 0
KWT1 140009Z 11008KT 34/11 A2978 RMK A01 T03410109  RH  024%=      5-min Rain = 0
KWT1 140010Z 12007KT 34/11 A2978 RMK A01 T03400110  RH  025%=      5-min Rain = 0
KWT1 140011Z 11007KT 34/11 A2978 RMK A01 T03400110  RH  025%=      5-min Rain = 0
KWT1 140012Z 12008KT 34/11 A2978 RMK A01 T03390110  RH  025%=      5-min Rain = 0
KWT1 140013Z 11009KT 34/11 A2978 RMK A01 T03390109  RH  025%=      5-min Rain = 0
KWT1 140014Z 11010KT 34/11 A2978 RMK A01 T03380109  RH  025%=      5-min Rain = 0
KWT1 140015Z 11008KT 34/11 A2978 RMK A01 T03380109  RH  025%=      5-min Rain = 0
KWT1 140016Z 11009KT 34/11 A2978 RMK A01 T03380109  RH  025%=      5-min Rain = 0
KWT1 140017Z 11008KT 34/11 A2978 RMK A01 T03370108  RH  025%=      5-min Rain = 0
KWT1 140018Z 12007KT 34/11 A2978 RMK A01 T03360109  RH  025%=      5-min Rain = 0
KWT1 140019Z 12008KT 34/11 A2978 RMK A01 T03360109  RH  025%=      5-min Rain = 0
KWT1 140020Z 12008KT 34/11 A2978 RMK A01 T03360109  RH  025%=      5-min Rain = 0
KWT1 140021Z 12008KT 34/11 A2978 RMK A01 T03350108  RH  025%=      5-min Rain = 0
KWT1 140022Z 12008KT 33/11 A2978 RMK A01 T03340108  RH  025%=      5-min Rain = 0
KWT1 140023Z 12007KT 33/11 A2978 RMK A01 T03340109  RH  025%=      5-min Rain = 0
KWT1 140024Z 12007KT 33/11 A2978 RMK A01 T03330108  RH  025%=      5-min Rain = 0
KWT1 140025Z 12007KT 33/11 A2978 RMK A01 T03330109  RH  025%=      5-min Rain = 0
KWT1 140026Z 12007KT 33/11 A2978 RMK A01 T03320109  RH  026%=      5-min Rain = 0
KWT1 140027Z 12008KT 33/11 A2978 RMK A01 T03310108  RH  025%=      5-min Rain = 0
KWT1 140028Z 12007KT 33/11 A2978 RMK A01 T03310108  RH  026%=      5-min Rain = 0
KWT1 140029Z 12007KT 33/11 A2978 RMK A01 T03310108  RH  026%=      5-min Rain = 0
KWT1 140030Z 12006KT 33/11 A2978 RMK A01 T03300108  RH  026%=      5-min Rain = 0
KWT1 140031Z 12007KT 33/11 A2978 RMK A01 T03290108  RH  026%=      5-min Rain = 0
KWT1 140032Z 12007KT 33/11 A2978 RMK A01 T03280107  RH  026%=      5-min Rain = 0
KWT1 140033Z 12006KT 33/11 A2978 RMK A01 T03280108  RH  026%=      5-min Rain = 0
KWT1 140034Z 12006KT 33/11 A2978 RMK A01 T03270108  RH  026%=      5-min Rain = 0
KWT1 140035Z 12007KT 33/11 A2978 RMK A01 T03260108  RH  026%=      5-min Rain = 0
KWT1 140036Z 12006KT 33/11 A2978 RMK A01 T03250108  RH  026%=      5-min Rain = 0
KWT1 140037Z 12006KT 32/11 A2978 RMK A01 T03240108  RH  027%=      5-min Rain = 0
KWT1 140038Z 12006KT 32/11 A2978 RMK A01 T03230108  RH  027%=      5-min Rain = 0
KWT1 140039Z 12006KT 32/11 A2978 RMK A01 T03230108  RH  027%=      5-min Rain = 0
KWT1 140040Z 13006KT 32/11 A2978 RMK A01 T03220108  RH  027%=      5-min Rain = 0
KWT1 140041Z 12006KT 32/11 A2978 RMK A01 T03220108  RH  027%=      5-min Rain = 0
KWT1 140042Z 13007KT 32/11 A2978 RMK A01 T03210108  RH  027%=      5-min Rain = 0
KWT1 140043Z 12007KT 32/11 A2978 RMK A01 T03210108  RH  027%=      5-min Rain = 0
KWT1 140044Z 12007KT 32/11 A2978 RMK A01 T03200108  RH  027%=      5-min Rain = 0
KWT1 140045Z 12007KT 32/11 A2978 RMK A01 T03200108  RH  027%=      5-min Rain = 0
KWT1 140046Z 12006KT 32/11 A2978 RMK A01 T03190108  RH  027%=      5-min Rain = 0
KWT1 140047Z 12006KT 32/11 A2978 RMK A01 T03180108  RH  027%=      5-min Rain = 0
KWT1 140048Z 13006KT 32/11 A2978 RMK A01 T03180108  RH  028%=      5-min Rain = 0
KWT1 140049Z 13006KT 32/11 A2978 RMK A01 T03170108  RH  028%=      5-min Rain = 0
KWT1 140050Z 13007KT 32/11 A2978 RMK A01 T03160108  RH  028%=      5-min Rain = 0
KWT1 140051Z 13007KT 32/11 A2978 RMK A01 T03160107  RH  028%=      5-min Rain = 0
KWT1 140052Z 13007KT 32/11 A2978 RMK A01 T03150107  RH  028%=      5-min Rain = 0
KWT1 140053Z 13006KT 32/11 A2978 RMK A01 T03150107  RH  028%=      5-min Rain = 0
KWT1 140054Z 13007KT 31/11 A2978 RMK A01 T03140107  RH  028%=      5-min Rain = 0
KWT1 140055Z 12007KT 31/11 A2978 RMK A01 T03140107  RH  028%=      5-min Rain = 0
KWT1 140056Z 12006KT 31/11 A2978 RMK A01 T03130107  RH  028%=      5-min Rain = 0
KWT1 140057Z 12006KT 31/11 A2978 RMK A01 T03120107  RH  028%=      5-min Rain = 0
KWT1 140058Z 12006KT 31/11 A2978 RMK A01 T03110108  RH  028%=      5-min Rain = 0
KWT1 140059Z 12006KT 31/11 A2978 RMK A01 T03100108  RH  029%=      5-min Rain = 0
KWT1 140100Z 12007KT 31/11 A2978 RMK A01 T03090108  RH  029%=      5-min Rain = 0
KWT1 140101Z 12007KT 31/11 A2978 RMK A01 T03080108  RH  029%=      5-min Rain = 0
KWT1 140102Z 12007KT 31/11 A2978 RMK A01 T03070108  RH  029%=      5-min Rain = 0
KWT1 140103Z 12006KT 31/11 A2978 RMK A01 T03070109  RH  029%=      5-min Rain = 0
KWT1 140104Z 13007KT 31/11 A2978 RMK A01 T03070109  RH  030%=      5-min Rain = 0
KWT1 140105Z 13007KT 31/11 A2978 RMK A01 T03060109  RH  030%=      5-min Rain = 0
KWT1 140106Z 13007KT 31/11 A2978 RMK A01 T03070110  RH  030%=      5-min Rain = 0
KWT1 140107Z 13007KT 31/11 A2978 RMK A01 T03060111  RH  030%=      5-min Rain = 0
KWT1 140108Z 13007KT 31/11 A2978 RMK A01 T03060111  RH  030%=      5-min Rain = 0
KWT1 140109Z 13007KT 31/11 A2978 RMK A01 T03050111  RH  030%=      5-min Rain = 0
KWT1 140110Z 13007KT 31/11 A2978 RMK A01 T03050112  RH  030%=      5-min Rain = 0
KWT1 140111Z 13006KT 31/11 A2978 RMK A01 T03050112  RH  030%=      5-min Rain = 0
KWT1 140112Z 13006KT 31/11 A2978 RMK A01 T03050113  RH  031%=      5-min Rain = 0
KWT1 140113Z 13006KT 30/11 A2978 RMK A01 T03040113  RH  031%=      5-min Rain = 0
KWT1 140114Z 13007KT 30/11 A2979 RMK A01 T03040114  RH  031%=      5-min Rain = 0
KWT1 140115Z 13007KT 30/11 A2979 RMK A01 T03030114  RH  031%=      5-min Rain = 0
KWT1 140116Z 12007KT 30/12 A2979 RMK A01 T03030115  RH  031%=      5-min Rain = 0
KWT1 140117Z 13006KT 30/12 A2979 RMK A01 T03030115  RH  031%=      5-min Rain = 0
KWT1 140118Z 13006KT 30/12 A2979 RMK A01 T03030115  RH  031%=      5-min Rain = 0
KWT1 140119Z 13007KT 30/12 A2979 RMK A01 T03020115  RH  032%=      5-min Rain = 0
KWT1 140120Z 13006KT 30/12 A2979 RMK A01 T03020116  RH  032%=      5-min Rain = 0
KWT1 140121Z 13006KT 30/12 A2979 RMK A01 T03010116  RH  032%=      5-min Rain = 0
KWT1 140122Z 13007KT 30/12 A2979 RMK A01 T03010116  RH  032%=      5-min Rain = 0
KWT1 140123Z 13007KT 30/12 A2979 RMK A01 T03010116  RH  032%=      5-min Rain = 0
KWT1 140124Z 13006KT 30/12 A2979 RMK A01 T03010117  RH  032%=      5-min Rain = 0
KWT1 140125Z 13006KT 30/12 A2979 RMK A01 T03010117  RH  032%=      5-min Rain = 0
KWT1 140126Z 13006KT 30/12 A2979 RMK A01 T03000117  RH  032%=      5-min Rain = 0
KWT1 140127Z 13007KT 30/12 A2979 RMK A01 T02990117  RH  032%=      5-min Rain = 0
KWT1 140128Z 13006KT 30/12 A2979 RMK A01 T02990117  RH  033%=      5-min Rain = 0
KWT1 140129Z 12006KT 30/12 A2979 RMK A01 T02980117  RH  033%=      5-min Rain = 0
KWT1 140130Z 12005KT 30/12 A2979 RMK A01 T02970117  RH  033%=      5-min Rain = 0
KWT1 140131Z 12005KT 30/12 A2979 RMK A01 T02960117  RH  033%=      5-min Rain = 0
KWT1 140132Z 13005KT 30/12 A2979 RMK A01 T02950118  RH  034%=      5-min Rain = 0
KWT1 140133Z 13005KT 29/12 A2979 RMK A01 T02930117  RH  034%=      5-min Rain = 0
KWT1 140134Z 13006KT 29/12 A2979 RMK A01 T02920118  RH  034%=      5-min Rain = 0
KWT1 140135Z 13005KT 29/12 A2979 RMK A01 T02920118  RH  034%=      5-min Rain = 0
KWT1 140136Z 13006KT 29/12 A2979 RMK A01 T02910118  RH  034%=      5-min Rain = 0
KWT1 140137Z 13006KT 29/12 A2979 RMK A01 T02910118  RH  034%=      5-min Rain = 0
KWT1 140138Z 13006KT 29/12 A2979 RMK A01 T02910118  RH  034%=      5-min Rain = 0
KWT1 140139Z 13006KT 29/12 A2979 RMK A01 T02910117  RH  034%=      5-min Rain = 0
KWT1 140140Z 13007KT 29/12 A2979 RMK A01 T02910117  RH  034%=      5-min Rain = 0
KWT1 140141Z 13006KT 29/12 A2979 RMK A01 T02910118  RH  034%=      5-min Rain = 0
KWT1 140142Z 13007KT 29/12 A2979 RMK A01 T02910117  RH  034%=      5-min Rain = 0
KWT1 140143Z 13006KT 29/12 A2979 RMK A01 T02910117  RH  034%=      5-min Rain = 0
KWT1 140144Z 13006KT 29/12 A2979 RMK A01 T02910118  RH  034%=      5-min Rain = 0
KWT1 140145Z 13006KT 29/12 A2979 RMK A01 T02910117  RH  034%=      5-min Rain = 0
KWT1 140146Z 13006KT 29/12 A298 RMK A01 T02910117  RH  034%=      5-min Rain = 0
KWT1 140147Z 13006KT 29/12 A298 RMK A01 T02900117  RH  034%=      5-min Rain = 0
KWT1 140148Z 13006KT 29/12 A298 RMK A01 T02910118  RH  034%=      5-min Rain = 0
KWT1 140149Z 13006KT 29/12 A298 RMK A01 T02900117  RH  034%=      5-min Rain = 0
KWT1 140150Z 13006KT 29/12 A298 RMK A01 T02890117  RH  034%=      5-min Rain = 0
KWT1 140151Z 13006KT 29/12 A298 RMK A01 T02890117  RH  034%=      5-min Rain = 0
KWT1 140152Z 13006KT 29/12 A298 RMK A01 T02890117  RH  035%=      5-min Rain = 0
KWT1 140153Z 13006KT 29/12 A298 RMK A01 T02890117  RH  035%=      5-min Rain = 0
KWT1 140154Z 13006KT 29/12 A298 RMK A01 T02890117  RH  035%=      5-min Rain = 0
KWT1 140155Z 13006KT 29/12 A298 RMK A01 T02880117  RH  035%=      5-min Rain = 0
KWT1 140156Z 13006KT 29/12 A298 RMK A01 T02880117  RH  035%=      5-min Rain = 0
KWT1 140157Z 13006KT 29/12 A298 RMK A01 T02870116  RH  035%=      5-min Rain = 0
KWT1 140158Z 13006KT 29/12 A298 RMK A01 T02870117  RH  035%=      5-min Rain = 0
KWT1 140159Z 13007KT 29/12 A298 RMK A01 T02870116  RH  035%=      5-min Rain = 0
KWT1 140200Z 13006KT 29/12 A298 RMK A01 T02870116  RH  035%=      5-min Rain = 0
KWT1 140201Z 13006KT 29/12 A298 RMK A01 T02870116  RH  035%=      5-min Rain = 0
KWT1 140202Z 13006KT 29/12 A298 RMK A01 T02870116  RH  035%=      5-min Rain = 0
KWT1 140203Z 13006KT 29/12 A298 RMK A01 T02870115  RH  035%=      5-min Rain = 0
KWT1 140204Z 13006KT 29/12 A298 RMK A01 T02860116  RH  035%=      5-min Rain = 0
KWT1 140205Z 13006KT 29/12 A298 RMK A01 T02860116  RH  035%=      5-min Rain = 0
KWT1 140206Z 13006KT 29/12 A2981 RMK A01 T02860116  RH  035%=      5-min Rain = 0
KWT1 140207Z 13006KT 29/12 A2981 RMK A01 T02850115  RH  035%=      5-min Rain = 0
KWT1 140208Z 13005KT 28/12 A2981 RMK A01 T02840115  RH  035%=      5-min Rain = 0
KWT1 140209Z 12005KT 28/12 A2981 RMK A01 T02840115  RH  035%=      5-min Rain = 0
KWT1 140210Z 12005KT 28/12 A2981 RMK A01 T02830115  RH  035%=      5-min Rain = 0
KWT1 140211Z 12005KT 28/12 A2981 RMK A01 T02820115  RH  035%=      5-min Rain = 0
KWT1 140212Z 13005KT 28/12 A2981 RMK A01 T02820115  RH  035%=      5-min Rain = 0
KWT1 140213Z 13005KT 28/12 A2981 RMK A01 T02810115  RH  036%=      5-min Rain = 0
KWT1 140214Z 13005KT 28/11 A2981 RMK A01 T02810114  RH  036%=      5-min Rain = 0
KWT1 140215Z 13005KT 28/11 A2981 RMK A01 T02800114  RH  036%=      5-min Rain = 0
KWT1 140216Z 12006KT 28/11 A2981 RMK A01 T02800114  RH  036%=      5-min Rain = 0
KWT1 140217Z 12006KT 28/11 A2981 RMK A01 T02800114  RH  036%=      5-min Rain = 0
KWT1 140218Z 12006KT 28/11 A2981 RMK A01 T02800114  RH  036%=      5-min Rain = 0
KWT1 140219Z 12006KT 28/11 A2981 RMK A01 T02800114  RH  036%=      5-min Rain = 0
KWT1 140220Z 12006KT 28/11 A2981 RMK A01 T02800114  RH  036%=      5-min Rain = 0
KWT1 140221Z 13006KT 28/11 A2981 RMK A01 T02800114  RH  036%=      5-min Rain = 0
KWT1 140222Z 12006KT 28/11 A2981 RMK A01 T02800113  RH  036%=      5-min Rain = 0
KWT1 140223Z 12006KT 28/11 A2981 RMK A01 T02800113  RH  036%=      5-min Rain = 0
KWT1 140224Z 12006KT 28/11 A2981 RMK A01 T02800114  RH  036%=      5-min Rain = 0
KWT1 140225Z 12006KT 28/11 A2981 RMK A01 T02800114  RH  036%=      5-min Rain = 0
KWT1 140226Z 12006KT 28/11 A2981 RMK A01 T02790114  RH  036%=      5-min Rain = 0
KWT1 140227Z 12006KT 28/11 A2981 RMK A01 T02790114  RH  036%=      5-min Rain = 0
KWT1 140228Z 12006KT 28/11 A2981 RMK A01 T02780114  RH  036%=      5-min Rain = 0
KWT1 140229Z 12006KT 28/11 A2981 RMK A01 T02780114  RH  036%=      5-min Rain = 0
KWT1 140230Z 13006KT 28/11 A2981 RMK A01 T02770113  RH  036%=      5-min Rain = 0
KWT1 140231Z 12006KT 28/11 A2981 RMK A01 T02770114  RH  036%=      5-min Rain = 0
KWT1 140232Z 12005KT 28/11 A2981 RMK A01 T02760113  RH  036%=      5-min Rain = 0
KWT1 140233Z 13006KT 28/11 A2981 RMK A01 T02760113  RH  036%=      5-min Rain = 0
KWT1 140234Z 13006KT 28/11 A2981 RMK A01 T02760113  RH  036%=      5-min Rain = 0
KWT1 140235Z 13006KT 28/11 A2982 RMK A01 T02760113  RH  036%=      5-min Rain = 0
KWT1 140236Z 13006KT 28/11 A2982 RMK A01 T02760114  RH  036%=      5-min Rain = 0
KWT1 140237Z 13005KT 28/11 A2982 RMK A01 T02760113  RH  036%=      5-min Rain = 0
KWT1 140238Z 13006KT 28/11 A2982 RMK A01 T02760113  RH  036%=      5-min Rain = 0
KWT1 140239Z 13005KT 28/11 A2982 RMK A01 T02760113  RH  036%=      5-min Rain = 0
KWT1 140240Z 13005KT 28/11 A2982 RMK A01 T02760113  RH  036%=      5-min Rain = 0
KWT1 140241Z 12005KT 28/11 A2982 RMK A01 T02760113  RH  036%=      5-min Rain = 0
KWT1 140242Z 12005KT 28/11 A2982 RMK A01 T02760113  RH  036%=      5-min Rain = 0
KWT1 140243Z 12006KT 28/11 A2982 RMK A01 T02750113  RH  036%=      5-min Rain = 0
KWT1 140244Z 12005KT 28/11 A2982 RMK A01 T02750113  RH  037%=      5-min Rain = 0
KWT1 140245Z 12006KT 27/11 A2982 RMK A01 T02740113  RH  037%=      5-min Rain = 0
KWT1 140246Z 12006KT 27/11 A2982 RMK A01 T02740113  RH  037%=      5-min Rain = 0
KWT1 140247Z 12006KT 27/11 A2982 RMK A01 T02740113  RH  037%=      5-min Rain = 0
KWT1 140248Z 12006KT 27/11 A2982 RMK A01 T02730113  RH  037%=      5-min Rain = 0
KWT1 140249Z 12006KT 27/11 A2982 RMK A01 T02730113  RH  037%=      5-min Rain = 0
KWT1 140250Z 12006KT 27/11 A2982 RMK A01 T02720113  RH  037%=      5-min Rain = 0
KWT1 140251Z 12006KT 27/11 A2982 RMK A01 T02720113  RH  037%=      5-min Rain = 0
KWT1 140252Z 12006KT 27/11 A2982 RMK A01 T02720113  RH  037%=      5-min Rain = 0
KWT1 140253Z 12006KT 27/11 A2982 RMK A01 T02710113  RH  037%=      5-min Rain = 0
KWT1 140254Z 12006KT 27/11 A2982 RMK A01 T02700113  RH  037%=      5-min Rain = 0
KWT1 140255Z 12006KT 27/11 A2982 RMK A01 T02700113  RH  037%=      5-min Rain = 0
KWT1 140256Z 12006KT 27/11 A2982 RMK A01 T02710113  RH  037%=      5-min Rain = 0
KWT1 140257Z 12006KT 27/11 A2982 RMK A01 T02700113  RH  037%=      5-min Rain = 0
KWT1 140258Z 12006KT 27/11 A2982 RMK A01 T02700113  RH  038%=      5-min Rain = 0
KWT1 140259Z 11005KT 27/11 A2982 RMK A01 T02690112  RH  038%=      5-min Rain = 0
KWT1 140300Z 11005KT 27/11 A2982 RMK A01 T02690112  RH  038%=      5-min Rain = 0
KWT1 140301Z 11005KT 27/11 A2982 RMK A01 T02690113  RH  038%=      5-min Rain = 0
KWT1 140302Z 11005KT 27/11 A2982 RMK A01 T02690113  RH  038%=      5-min Rain = 0
KWT1 140303Z 10005KT 27/11 A2982 RMK A01 T02670113  RH  038%=      5-min Rain = 0
KWT1 140304Z 10005KT 27/11 A2982 RMK A01 T02670113  RH  038%=      5-min Rain = 0
KWT1 140305Z 09004KT 27/11 A2982 RMK A01 T02660113  RH  038%=      5-min Rain = 0
KWT1 140306Z 08005KT 27/11 A2982 RMK A01 T02650113  RH  039%=      5-min Rain = 0
KWT1 140307Z 08005KT 26/11 A2982 RMK A01 T02630112  RH  039%=      5-min Rain = 0
KWT1 140308Z 08005KT 26/11 A2982 RMK A01 T02620113  RH  039%=      5-min Rain = 0
KWT1 140309Z 09005KT 26/11 A2982 RMK A01 T02610113  RH  039%=      5-min Rain = 0
KWT1 140310Z 09005KT 26/11 A2982 RMK A01 T02610113  RH  040%=      5-min Rain = 0
KWT1 140311Z 10006KT 26/11 A2982 RMK A01 T02610113  RH  040%=      5-min Rain = 0
KWT1 140312Z 09006KT 26/11 A2983 RMK A01 T02600114  RH  040%=      5-min Rain = 0
KWT1 140313Z 10006KT 26/11 A2982 RMK A01 T02580114  RH  041%=      5-min Rain = 0
KWT1 140314Z 10005KT 26/11 A2982 RMK A01 T02570114  RH  041%=      5-min Rain = 0
KWT1 140315Z 10005KT 26/11 A2982 RMK A01 T02560114  RH  041%=      5-min Rain = 0
KWT1 140316Z 10005KT 26/11 A2982 RMK A01 T02560114  RH  041%=      5-min Rain = 0
KWT1 140317Z 11005KT 26/11 A2982 RMK A01 T02550113  RH  041%=      5-min Rain = 0
KWT1 140318Z 12005KT 26/11 A2982 RMK A01 T02550114  RH  041%=      5-min Rain = 0
KWT1 140319Z 12005KT 25/11 A2983 RMK A01 T02540114  RH  041%=      5-min Rain = 0
KWT1 140320Z 12005KT 25/11 A2983 RMK A01 T02540114  RH  041%=      5-min Rain = 0
KWT1 140321Z 12005KT 25/11 A2983 RMK A01 T02540113  RH  041%=      5-min Rain = 0
KWT1 140322Z 11005KT 25/11 A2983 RMK A01 T02540113  RH  041%=      5-min Rain = 0
KWT1 140323Z 11005KT 25/11 A2983 RMK A01 T02530113  RH  041%=      5-min Rain = 0
KWT1 140324Z 11005KT 25/11 A2983 RMK A01 T02530113  RH  041%=      5-min Rain = 0
KWT1 140325Z 11005KT 25/11 A2983 RMK A01 T02530113  RH  041%=      5-min Rain = 0
KWT1 140326Z 11005KT 25/11 A2983 RMK A01 T02530112  RH  041%=      5-min Rain = 0
KWT1 140327Z 11005KT 25/11 A2983 RMK A01 T02530112  RH  041%=      5-min Rain = 0
KWT1 140328Z 11004KT 25/11 A2983 RMK A01 T02530113  RH  041%=      5-min Rain = 0
KWT1 140329Z 10005KT 25/11 A2983 RMK A01 T02530113  RH  041%=      5-min Rain = 0
KWT1 140330Z 10005KT 25/11 A2983 RMK A01 T02530113  RH  041%=      5-min Rain = 0
KWT1 140331Z 10004KT 25/11 A2983 RMK A01 T02530112  RH  041%=      5-min Rain = 0
KWT1 140332Z 10005KT 25/11 A2983 RMK A01 T02530112  RH  041%=      5-min Rain = 0
KWT1 140333Z 11004KT 25/11 A2983 RMK A01 T02530112  RH  041%=      5-min Rain = 0
KWT1 140334Z 11005KT 25/11 A2983 RMK A01 T02530112  RH  041%=      5-min Rain = 0
KWT1 140335Z 11004KT 25/11 A2983 RMK A01 T02530112  RH  041%=      5-min Rain = 0
KWT1 140336Z 11004KT 25/11 A2983 RMK A01 T02530112  RH  041%=      5-min Rain = 0
KWT1 140337Z 11005KT 25/11 A2983 RMK A01 T02540112  RH  041%=      5-min Rain = 0
KWT1 140338Z 12004KT 25/11 A2983 RMK A01 T02540112  RH  041%=      5-min Rain = 0
KWT1 140339Z 12005KT 25/11 A2983 RMK A01 T02540112  RH  041%=      5-min Rain = 0
KWT1 140340Z 12005KT 26/11 A2983 RMK A01 T02550112  RH  041%=      5-min Rain = 0
KWT1 140341Z 12005KT 26/11 A2983 RMK A01 T02550112  RH  041%=      5-min Rain = 0
KWT1 140342Z 12005KT 26/11 A2983 RMK A01 T02550112  RH  041%=      5-min Rain = 0
KWT1 140343Z 12005KT 26/11 A2983 RMK A01 T02550112  RH  041%=      5-min Rain = 0
KWT1 140344Z 12005KT 25/11 A2983 RMK A01 T02540112  RH  041%=      5-min Rain = 0
KWT1 140345Z 12005KT 25/11 A2983 RMK A01 T02540111  RH  041%=      5-min Rain = 0
KWT1 140346Z 12005KT 25/11 A2983 RMK A01 T02540111  RH  041%=      5-min Rain = 0
KWT1 140347Z 12006KT 26/11 A2983 RMK A01 T02550112  RH  041%=      5-min Rain = 0
KWT1 140348Z 12006KT 26/11 A2983 RMK A01 T02550112  RH  041%=      5-min Rain = 0
KWT1 140349Z 12005KT 25/11 A2983 RMK A01 T02540112  RH  041%=      5-min Rain = 0
KWT1 140350Z 12005KT 25/11 A2983 RMK A01 T02540112  RH  041%=      5-min Rain = 0
KWT1 140351Z 12006KT 25/11 A2983 RMK A01 T02540112  RH  041%=      5-min Rain = 0
KWT1 140352Z 12005KT 25/11 A2983 RMK A01 T02540112  RH  041%=      5-min Rain = 0
KWT1 140353Z 12005KT 25/11 A2983 RMK A01 T02540112  RH  041%=      5-min Rain = 0
KWT1 140354Z 12005KT 25/11 A2983 RMK A01 T02540112  RH  041%=      5-min Rain = 0
KWT1 140355Z 12005KT 25/11 A2983 RMK A01 T02530112  RH  041%=      5-min Rain = 0
KWT1 140356Z 12005KT 25/11 A2983 RMK A01 T02530112  RH  041%=      5-min Rain = 0
KWT1 140357Z 12005KT 25/11 A2983 RMK A01 T02530112  RH  041%=      5-min Rain = 0
KWT1 140358Z 12005KT 25/11 A2983 RMK A01 T02530112  RH  041%=      5-min Rain = 0
KWT1 140359Z 12005KT 25/11 A2983 RMK A01 T02530112  RH  041%=      5-min Rain = 0
KWT1 140400Z 12005KT 25/11 A2983 RMK A01 T02530112  RH  041%=      5-min Rain = 0
KWT1 140401Z 12005KT 25/11 A2983 RMK A01 T02530112  RH  041%=      5-min Rain = 0
KWT1 140402Z 12005KT 25/11 A2983 RMK A01 T02530112  RH  041%=      5-min Rain = 0
KWT1 140403Z 12005KT 25/11 A2983 RMK A01 T02530112  RH  041%=      5-min Rain = 0
KWT1 140404Z 13005KT 25/11 A2983 RMK A01 T02530112  RH  041%=      5-min Rain = 0
KWT1 140405Z 13005KT 25/11 A2983 RMK A01 T02530112  RH  041%=      5-min Rain = 0
KWT1 140406Z 13005KT 25/11 A2983 RMK A01 T02530112  RH  041%=      5-min Rain = 0
KWT1 140407Z 13005KT 25/11 A2983 RMK A01 T02540112  RH  041%=      5-min Rain = 0
KWT1 140408Z 13006KT 25/11 A2983 RMK A01 T02540112  RH  041%=      5-min Rain = 0
KWT1 140409Z 13006KT 25/11 A2983 RMK A01 T02540112  RH  041%=      5-min Rain = 0
KWT1 140410Z 13006KT 25/11 A2983 RMK A01 T02540113  RH  041%=      5-min Rain = 0
KWT1 140411Z 13006KT 25/11 A2983 RMK A01 T02530112  RH  041%=      5-min Rain = 0
KWT1 140412Z 13007KT 25/11 A2983 RMK A01 T02530113  RH  041%=      5-min Rain = 0
KWT1 140413Z 13006KT 25/11 A2983 RMK A01 T02540113  RH  041%=      5-min Rain = 0
KWT1 140414Z 13007KT 26/11 A2983 RMK A01 T02560113  RH  041%=      5-min Rain = 0
KWT1 140415Z 13007KT 26/11 A2983 RMK A01 T02580113  RH  040%=      5-min Rain = 0
KWT1 140416Z 14007KT 26/11 A2983 RMK A01 T02600114  RH  040%=      5-min Rain = 0
KWT1 140417Z 13007KT 26/11 A2983 RMK A01 T02610113  RH  040%=      5-min Rain = 0
KWT1 140418Z 13007KT 26/11 A2983 RMK A01 T02630114  RH  039%=      5-min Rain = 0
KWT1 140419Z 14008KT 26/11 A2983 RMK A01 T02640114  RH  039%=      5-min Rain = 0
KWT1 140420Z 14008KT 27/11 A2983 RMK A01 T02650114  RH  039%=      5-min Rain = 0
KWT1 140421Z 13007KT 27/11 A2983 RMK A01 T02660114  RH  039%=      5-min Rain = 0
KWT1 140422Z 14007KT 27/11 A2983 RMK A01 T02660114  RH  039%=      5-min Rain = 0
KWT1 140423Z 14007KT 27/11 A2983 RMK A01 T02660114  RH  039%=      5-min Rain = 0
KWT1 140424Z 14007KT 27/11 A2983 RMK A01 T02660114  RH  039%=      5-min Rain = 0
KWT1 140425Z 13006KT 27/11 A2983 RMK A01 T02650114  RH  039%=      5-min Rain = 0
KWT1 140426Z 13007KT 27/11 A2983 RMK A01 T02650114  RH  039%=      5-min Rain = 0
KWT1 140427Z 13007KT 26/11 A2983 RMK A01 T02640113  RH  039%=      5-min Rain = 0
KWT1 140428Z 13007KT 26/11 A2983 RMK A01 T02640114  RH  039%=      5-min Rain = 0
KWT1 140429Z 14006KT 26/11 A2983 RMK A01 T02640114  RH  039%=      5-min Rain = 0
KWT1 140430Z 14006KT 26/11 A2983 RMK A01 T02640114  RH  039%=      5-min Rain = 0
KWT1 140431Z 14006KT 26/11 A2983 RMK A01 T02630114  RH  039%=      5-min Rain = 0
KWT1 140432Z 14006KT 26/11 A2983 RMK A01 T02610114  RH  040%=      5-min Rain = 0
KWT1 140433Z 14007KT 26/11 A2983 RMK A01 T02610114  RH  040%=      5-min Rain = 0
KWT1 140434Z 14006KT 26/11 A2983 RMK A01 T02600114  RH  040%=      5-min Rain = 0
KWT1 140435Z 13007KT 26/11 A2983 RMK A01 T02590114  RH  040%=      5-min Rain = 0
KWT1 140436Z 13007KT 26/11 A2983 RMK A01 T02590114  RH  040%=      5-min Rain = 0
KWT1 140437Z 13007KT 26/11 A2983 RMK A01 T02580114  RH  040%=      5-min Rain = 0
KWT1 140438Z 13007KT 26/11 A2983 RMK A01 T02580114  RH  040%=      5-min Rain = 0
KWT1 140439Z 13007KT 26/11 A2983 RMK A01 T02580113  RH  040%=      5-min Rain = 0
KWT1 140440Z 13007KT 26/11 A2983 RMK A01 T02580113  RH  040%=      5-min Rain = 0
KWT1 140441Z 13007KT 26/11 A2983 RMK A01 T02580114  RH  041%=      5-min Rain = 0
KWT1 140442Z 13007KT 26/11 A2983 RMK A01 T02570114  RH  041%=      5-min Rain = 0
KWT1 140443Z 13007KT 26/11 A2983 RMK A01 T02570114  RH  041%=      5-min Rain = 0
KWT1 140444Z 13006KT 26/11 A2983 RMK A01 T02570114  RH  041%=      5-min Rain = 0
KWT1 140445Z 13006KT 26/11 A2983 RMK A01 T02570114  RH  041%=      5-min Rain = 0
KWT1 140446Z 13006KT 26/11 A2983 RMK A01 T02570114  RH  041%=      5-min Rain = 0
KWT1 140447Z 13006KT 26/11 A2983 RMK A01 T02560114  RH  041%=      5-min Rain = 0
KWT1 140448Z 13006KT 26/11 A2983 RMK A01 T02560114  RH  041%=      5-min Rain = 0
KWT1 140449Z 13006KT 26/11 A2983 RMK A01 T02560114  RH  041%=      5-min Rain = 0
KWT1 140450Z 14006KT 26/11 A2983 RMK A01 T02550114  RH  041%=      5-min Rain = 0
KWT1 140451Z 13006KT 26/11 A2983 RMK A01 T02550114  RH  041%=      5-min Rain = 0
KWT1 140452Z 13005KT 25/11 A2983 RMK A01 T02540114  RH  042%=      5-min Rain = 0
KWT1 140453Z 13005KT 25/11 A2983 RMK A01 T02530114  RH  042%=      5-min Rain = 0
KWT1 140454Z 13005KT 25/11 A2983 RMK A01 T02520114  RH  042%=      5-min Rain = 0
KWT1 140455Z 13005KT 25/11 A2983 RMK A01 T02510114  RH  042%=      5-min Rain = 0
KWT1 140456Z 13005KT 25/11 A2983 RMK A01 T02500114  RH  043%=      5-min Rain = 0
KWT1 140457Z 13005KT 25/11 A2983 RMK A01 T02490114  RH  043%=      5-min Rain = 0
KWT1 140458Z 14005KT 25/11 A2983 RMK A01 T02490114  RH  043%=      5-min Rain = 0
KWT1 140459Z 14006KT 25/11 A2983 RMK A01 T02480114  RH  043%=      5-min Rain = 0
KWT1 140500Z 14005KT 25/11 A2983 RMK A01 T02470113  RH  043%=      5-min Rain = 0

Page generated in 0.0759 seconds.